Time,TemperatureF,DewpointF,PressureIn,WindDirection,WindDirectionDegrees,WindSpeedMPH,WindSpeedGustMPH,Humidity,HourlyPrecipIn,Conditions,Clouds,dailyrainin,SoftwareType,DateUTC
2013-01-02 00:01:00,4.6,1.8,30.26,WSW,238,0.0,0.0,88,0.00,,,0.00,Wunderground v.1.15,2013-01-02 06:01:00,
2013-01-02 00:02:00,4.6,1.8,30.26,WSW,237,0.0,0.0,88,0.00,,,0.00,Wunderground v.1.15,2013-01-02 06:02:00,
2013-01-02 00:03:00,4.5,1.7,30.26,WSW,238,0.0,0.0,88,0.00,,,0.00,Wunderground v.1.15,2013-01-02 06:03:00,
2013-01-02 00:07:00,4.3,1.5,30.26,WSW,237,0.0,0.0,88,0.00,,,0.00,Wunderground v.1.15,2013-01-02 06:07:00,
2013-01-02 00:08:00,4.3,1.5,30.25,WSW,238,0.0,0.0,88,0.00,,,0.00,Wunderground v.1.15,2013-01-02 06:08:00,
2013-01-02 00:09:00,4.3,1.8,30.25,WSW,237,0.0,0.0,89,0.00,,,0.00,Wunderground v.1.15,2013-01-02 06:09:00,
2013-01-02 00:12:00,4.3,1.8,30.25,WSW,238,0.0,0.0,89,0.00,,,0.00,Wunderground v.1.15,2013-01-02 06:12:00,
2013-01-02 00:13:00,4.4,1.9,30.25,WSW,238,0.0,0.0,89,0.00,,,0.00,Wunderground v.1.15,2013-01-02 06:13:00,
2013-01-02 00:15:00,4.3,1.8,30.25,WSW,238,0.0,0.0,89,0.00,,,0.00,Wunderground v.1.15,2013-01-02 06:15:00,
2013-01-02 00:17:00,4.2,1.7,30.26,WSW,238,0.0,0.0,89,0.00,,,0.00,Wunderground v.1.15,2013-01-02 06:17:00,
2013-01-02 00:18:00,4.2,1.7,30.25,WSW,238,0.0,0.0,89,0.00,,,0.00,Wunderground v.1.15,2013-01-02 06:18:00,
2013-01-02 00:20:00,4.1,1.6,30.25,WSW,238,0.0,0.0,89,0.00,,,0.00,Wunderground v.1.15,2013-01-02 06:20:00,
2013-01-02 00:22:00,4.0,1.5,30.26,WSW,238,0.0,0.0,89,0.00,,,0.00,Wunderground v.1.15,2013-01-02 06:22:00,
2013-01-02 00:25:00,3.9,1.4,30.25,WSW,238,0.0,0.0,89,0.00,,,0.00,Wunderground v.1.15,2013-01-02 06:25:00,
2013-01-02 00:27:00,3.8,1.3,30.25,WSW,238,0.0,0.0,89,0.00,,,0.00,Wunderground v.1.15,2013-01-02 06:27:00,
2013-01-02 00:28:00,3.8,1.3,30.25,WSW,238,0.0,0.0,89,0.00,,,0.00,Wunderground v.1.15,2013-01-02 06:28:00,
2013-01-02 00:32:00,3.9,1.4,30.25,WSW,238,0.0,0.0,89,0.00,,,0.00,Wunderground v.1.15,2013-01-02 06:32:00,
2013-01-02 00:33:00,3.9,1.4,30.25,WSW,237,0.0,0.0,89,0.00,,,0.00,Wunderground v.1.15,2013-01-02 06:33:00,
2013-01-02 00:35:00,3.9,1.4,30.25,WSW,237,0.0,0.0,89,0.00,,,0.00,Wunderground v.1.15,2013-01-02 06:35:00,
2013-01-02 00:36:00,4.0,1.5,30.25,WSW,238,0.0,0.0,89,0.00,,,0.00,Wunderground v.1.15,2013-01-02 06:36:00,
2013-01-02 00:37:00,4.0,1.5,30.25,WSW,238,0.0,0.0,89,0.00,,,0.00,Wunderground v.1.15,2013-01-02 06:37:00,
2013-01-02 00:39:00,4.0,1.5,30.25,WSW,238,0.0,0.0,89,0.00,,,0.00,Wunderground v.1.15,2013-01-02 06:39:00,
2013-01-02 00:41:00,3.9,1.4,30.25,WSW,237,0.0,0.0,89,0.00,,,0.00,Wunderground v.1.15,2013-01-02 06:41:00,
2013-01-02 00:42:00,3.8,1.3,30.26,WSW,237,0.0,0.0,89,0.00,,,0.00,Wunderground v.1.15,2013-01-02 06:42:00,
2013-01-02 00:44:00,3.8,1.3,30.25,WSW,238,0.0,0.0,89,0.00,,,0.00,Wunderground v.1.15,2013-01-02 06:44:00,
2013-01-02 00:49:00,3.9,1.6,30.25,WSW,238,0.0,0.0,90,0.00,,,0.00,Wunderground v.1.15,2013-01-02 06:49:00,
2013-01-02 00:51:00,4.0,1.7,30.26,WSW,238,0.0,0.0,90,0.00,,,0.00,Wunderground v.1.15,2013-01-02 06:51:00,
2013-01-02 00:55:00,4.0,1.7,30.26,WSW,237,0.0,0.0,90,0.00,,,0.00,Wunderground v.1.15,2013-01-02 06:55:00,
2013-01-02 00:56:00,4.0,1.7,30.26,WSW,238,0.0,0.0,90,0.00,,,0.00,Wunderground v.1.15,2013-01-02 06:56:00,
2013-01-02 00:57:00,4.0,1.7,30.26,WSW,238,0.0,0.0,90,0.00,,,0.00,Wunderground v.1.15,2013-01-02 06:57:00,
2013-01-02 01:02:00,4.2,1.9,30.26,WSW,238,0.0,0.0,90,0.00,,,0.00,Wunderground v.1.15,2013-01-02 07:02:00,
2013-01-02 01:04:00,4.2,1.9,30.26,WSW,238,0.0,0.0,90,0.00,,,0.00,Wunderground v.1.15,2013-01-02 07:04:00,
2013-01-02 01:05:00,4.3,2.0,30.26,WSW,237,0.0,0.0,90,0.00,,,0.00,Wunderground v.1.15,2013-01-02 07:05:00,
2013-01-02 01:07:00,4.3,2.0,30.26,WSW,238,0.0,0.0,90,0.00,,,0.00,Wunderground v.1.15,2013-01-02 07:07:00,
2013-01-02 01:08:00,4.3,2.0,30.26,WSW,237,0.0,0.0,90,0.00,,,0.00,Wunderground v.1.15,2013-01-02 07:08:00,
2013-01-02 01:10:00,4.2,1.9,30.26,WSW,238,0.0,0.0,90,0.00,,,0.00,Wunderground v.1.15,2013-01-02 07:10:00,
2013-01-02 01:12:00,4.1,1.6,30.26,WSW,238,0.0,0.0,89,0.00,,,0.00,Wunderground v.1.15,2013-01-02 07:12:00,
2013-01-02 01:14:00,4.0,1.5,30.26,WSW,238,0.0,0.0,89,0.00,,,0.00,Wunderground v.1.15,2013-01-02 07:14:00,
2013-01-02 01:15:00,4.1,1.6,30.26,WSW,238,0.0,0.0,89,0.00,,,0.00,Wunderground v.1.15,2013-01-02 07:15:00,
2013-01-02 01:18:00,4.0,1.5,30.26,WSW,238,0.0,0.0,89,0.00,,,0.00,Wunderground v.1.15,2013-01-02 07:18:00,
2013-01-02 01:19:00,4.0,1.5,30.26,WSW,238,0.0,0.0,89,0.00,,,0.00,Wunderground v.1.15,2013-01-02 07:19:00,
2013-01-02 01:20:00,4.0,1.5,30.27,WSW,238,0.0,0.0,89,0.00,,,0.00,Wunderground v.1.15,2013-01-02 07:20:00,
2013-01-02 01:23:00,4.0,1.5,30.27,WSW,237,0.0,0.0,89,0.00,,,0.00,Wunderground v.1.15,2013-01-02 07:23:00,
2013-01-02 01:25:00,4.0,1.5,30.27,WSW,238,0.0,0.0,89,0.00,,,0.00,Wunderground v.1.15,2013-01-02 07:25:00,
2013-01-02 01:26:00,4.0,1.5,30.26,WSW,238,0.0,0.0,89,0.00,,,0.00,Wunderground v.1.15,2013-01-02 07:26:00,
2013-01-02 01:28:00,3.9,1.4,30.26,WSW,238,0.0,0.0,89,0.00,,,0.00,Wunderground v.1.15,2013-01-02 07:28:00,
2013-01-02 01:31:00,4.0,1.5,30.26,WSW,238,0.0,0.0,89,0.00,,,0.00,Wunderground v.1.15,2013-01-02 07:31:00,
2013-01-02 01:32:00,3.9,1.4,30.27,WSW,238,0.0,0.0,89,0.00,,,0.00,Wunderground v.1.15,2013-01-02 07:32:00,
2013-01-02 01:34:00,4.0,1.5,30.27,WSW,238,0.0,0.0,89,0.00,,,0.00,Wunderground v.1.15,2013-01-02 07:34:00,
2013-01-02 01:35:00,4.0,1.5,30.27,WSW,238,0.0,0.0,89,0.00,,,0.00,Wunderground v.1.15,2013-01-02 07:35:00,
2013-01-02 01:38:00,3.9,1.4,30.28,WSW,237,0.0,0.0,89,0.00,,,0.00,Wunderground v.1.15,2013-01-02 07:38:00,
2013-01-02 01:41:00,3.9,1.4,30.28,WSW,238,0.0,0.0,89,0.00,,,0.00,Wunderground v.1.15,2013-01-02 07:41:00,
2013-01-02 01:43:00,3.9,1.4,30.27,WSW,238,0.0,0.0,89,0.00,,,0.00,Wunderground v.1.15,2013-01-02 07:43:00,
2013-01-02 01:44:00,3.8,1.3,30.27,WSW,237,0.0,0.0,89,0.00,,,0.00,Wunderground v.1.15,2013-01-02 07:44:00,
2013-01-02 01:46:00,3.8,1.3,30.27,WSW,237,0.0,0.0,89,0.00,,,0.00,Wunderground v.1.15,2013-01-02 07:46:00,
2013-01-02 01:48:00,3.7,1.2,30.27,WSW,238,0.0,0.0,89,0.00,,,0.00,Wunderground v.1.15,2013-01-02 07:48:00,
2013-01-02 01:49:00,3.7,1.2,30.27,WSW,238,0.0,0.0,89,0.00,,,0.00,Wunderground v.1.15,2013-01-02 07:49:00,
2013-01-02 01:50:00,3.8,1.3,30.27,WSW,237,0.0,0.0,89,0.00,,,0.00,Wunderground v.1.15,2013-01-02 07:50:00,
2013-01-02 01:51:00,3.8,1.5,30.27,WSW,238,0.0,0.0,90,0.00,,,0.00,Wunderground v.1.15,2013-01-02 07:51:00,
2013-01-02 01:54:00,4.0,1.7,30.27,WSW,238,0.0,0.0,90,0.00,,,0.00,Wunderground v.1.15,2013-01-02 07:54:00,
2013-01-02 01:57:00,4.2,1.9,30.27,WSW,237,0.0,0.0,90,0.00,,,0.00,Wunderground v.1.15,2013-01-02 07:57:00,
2013-01-02 01:59:00,4.3,2.0,30.27,WSW,237,0.0,0.0,90,0.00,,,0.00,Wunderground v.1.15,2013-01-02 07:59:00,
2013-01-02 02:01:00,4.2,1.9,30.27,WSW,238,0.0,0.0,90,0.00,,,0.00,Wunderground v.1.15,2013-01-02 08:01:00,
2013-01-02 02:04:00,4.2,1.7,30.27,WSW,238,0.0,0.0,89,0.00,,,0.00,Wunderground v.1.15,2013-01-02 08:04:00,
2013-01-02 02:05:00,4.1,1.6,30.27,WSW,238,0.0,0.0,89,0.00,,,0.00,Wunderground v.1.15,2013-01-02 08:05:00,
2013-01-02 02:06:00,4.1,1.6,30.27,WSW,238,0.0,0.0,89,0.00,,,0.00,Wunderground v.1.15,2013-01-02 08:06:00,
2013-01-02 02:07:00,4.1,1.6,30.27,WSW,237,0.0,0.0,89,0.00,,,0.00,Wunderground v.1.15,2013-01-02 08:07:00,
2013-01-02 02:10:00,4.1,1.6,30.27,WSW,238,0.0,0.0,89,0.00,,,0.00,Wunderground v.1.15,2013-01-02 08:10:00,
2013-01-02 02:12:00,4.1,1.6,30.27,WSW,238,0.0,0.0,89,0.00,,,0.00,Wunderground v.1.15,2013-01-02 08:12:00,
2013-01-02 02:13:00,4.1,1.6,30.27,WSW,238,0.0,0.0,89,0.00,,,0.00,Wunderground v.1.15,2013-01-02 08:13:00,
2013-01-02 02:16:00,4.0,1.5,30.27,WSW,238,0.0,0.0,89,0.00,,,0.00,Wunderground v.1.15,2013-01-02 08:16:00,
2013-01-02 02:17:00,4.0,1.5,30.26,WSW,238,0.0,0.0,89,0.00,,,0.00,Wunderground v.1.15,2013-01-02 08:17:00,
2013-01-02 02:21:00,4.1,1.6,30.26,WSW,238,0.0,0.0,89,0.00,,,0.00,Wunderground v.1.15,2013-01-02 08:21:00,
2013-01-02 02:24:00,4.0,1.5,30.27,WSW,238,0.0,0.0,89,0.00,,,0.00,Wunderground v.1.15,2013-01-02 08:24:00,
2013-01-02 02:25:00,4.0,1.5,30.27,WSW,238,0.0,0.0,89,0.00,,,0.00,Wunderground v.1.15,2013-01-02 08:25:00,
2013-01-02 02:26:00,4.0,1.5,30.27,WSW,238,0.0,0.0,89,0.00,,,0.00,Wunderground v.1.15,2013-01-02 08:26:00,
2013-01-02 02:27:00,4.0,1.5,30.27,WSW,238,0.0,0.0,89,0.00,,,0.00,Wunderground v.1.15,2013-01-02 08:27:00,
2013-01-02 02:29:00,3.9,1.4,30.27,WSW,238,0.0,0.0,89,0.00,,,0.00,Wunderground v.1.15,2013-01-02 08:29:00,
2013-01-02 02:31:00,3.8,1.3,30.27,WSW,238,0.0,0.0,89,0.00,,,0.00,Wunderground v.1.15,2013-01-02 08:31:00,
2013-01-02 02:34:00,3.7,1.2,30.27,WSW,237,0.0,0.0,89,0.00,,,0.00,Wunderground v.1.15,2013-01-02 08:34:00,
2013-01-02 02:37:00,3.7,1.2,30.27,WSW,238,0.0,0.0,89,0.00,,,0.00,Wunderground v.1.15,2013-01-02 08:37:00,
2013-01-02 02:39:00,3.7,1.2,30.27,WSW,238,0.0,0.0,89,0.00,,,0.00,Wunderground v.1.15,2013-01-02 08:39:00,
2013-01-02 02:41:00,3.7,1.2,30.27,WSW,238,0.0,0.0,89,0.00,,,0.00,Wunderground v.1.15,2013-01-02 08:41:00,
2013-01-02 02:43:00,3.7,1.2,30.26,WSW,238,0.0,0.0,89,0.00,,,0.00,Wunderground v.1.15,2013-01-02 08:43:00,
2013-01-02 02:44:00,3.7,1.2,30.26,WSW,238,0.0,0.0,89,0.00,,,0.00,Wunderground v.1.15,2013-01-02 08:44:00,
2013-01-02 02:45:00,3.7,1.2,30.26,WSW,238,0.0,0.0,89,0.00,,,0.00,Wunderground v.1.15,2013-01-02 08:45:00,
2013-01-02 02:49:00,3.7,1.2,30.26,WSW,238,0.0,0.0,89,0.00,,,0.00,Wunderground v.1.15,2013-01-02 08:49:00,
2013-01-02 02:50:00,3.7,1.2,30.27,WSW,238,0.0,0.0,89,0.00,,,0.00,Wunderground v.1.15,2013-01-02 08:50:00,
2013-01-02 02:54:00,3.7,1.2,30.26,WSW,238,0.0,0.0,89,0.00,,,0.00,Wunderground v.1.15,2013-01-02 08:54:00,
2013-01-02 02:55:00,3.7,1.2,30.26,WSW,237,0.0,0.0,89,0.00,,,0.00,Wunderground v.1.15,2013-01-02 08:55:00,
2013-01-02 02:56:00,3.7,1.2,30.26,WSW,238,0.0,0.0,89,0.00,,,0.00,Wunderground v.1.15,2013-01-02 08:56:00,
2013-01-02 02:58:00,3.7,1.2,30.26,WSW,238,0.0,0.0,89,0.00,,,0.00,Wunderground v.1.15,2013-01-02 08:58:00,
2013-01-02 03:00:00,3.8,1.3,30.27,WSW,238,0.0,0.0,89,0.00,,,0.00,Wunderground v.1.15,2013-01-02 09:00:00,
2013-01-02 03:01:00,3.8,1.3,30.27,WSW,238,0.0,0.0,89,0.00,,,0.00,Wunderground v.1.15,2013-01-02 09:01:00,
2013-01-02 03:02:00,3.8,1.3,30.27,WSW,238,0.0,0.0,89,0.00,,,0.00,Wunderground v.1.15,2013-01-02 09:02:00,
2013-01-02 03:03:00,3.9,1.4,30.27,WSW,238,0.0,0.0,89,0.00,,,0.00,Wunderground v.1.15,2013-01-02 09:03:00,
2013-01-02 03:06:00,3.8,1.3,30.27,WSW,237,0.0,0.0,89,0.00,,,0.00,Wunderground v.1.15,2013-01-02 09:06:00,
2013-01-02 03:08:00,3.9,1.4,30.27,WSW,238,0.0,0.0,89,0.00,,,0.00,Wunderground v.1.15,2013-01-02 09:08:00,
2013-01-02 03:10:00,3.9,1.4,30.27,WSW,238,0.0,0.0,89,0.00,,,0.00,Wunderground v.1.15,2013-01-02 09:10:00,
2013-01-02 03:13:00,3.9,1.4,30.27,WSW,238,0.0,0.0,89,0.00,,,0.00,Wunderground v.1.15,2013-01-02 09:13:00,
2013-01-02 03:15:00,4.0,1.5,30.27,WSW,238,0.0,0.0,89,0.00,,,0.00,Wunderground v.1.15,2013-01-02 09:15:00,
2013-01-02 03:17:00,4.0,1.5,30.26,WSW,238,0.0,0.0,89,0.00,,,0.00,Wunderground v.1.15,2013-01-02 09:17:00,
2013-01-02 03:18:00,4.0,1.5,30.27,WSW,238,0.0,0.0,89,0.00,,,0.00,Wunderground v.1.15,2013-01-02 09:18:00,
2013-01-02 03:21:00,3.9,1.4,30.27,WSW,237,0.0,0.0,89,0.00,,,0.00,Wunderground v.1.15,2013-01-02 09:21:00,
2013-01-02 03:22:00,3.9,1.4,30.27,WSW,238,0.0,0.0,89,0.00,,,0.00,Wunderground v.1.15,2013-01-02 09:22:00,
2013-01-02 03:23:00,3.9,1.4,30.26,WSW,238,0.0,0.0,89,0.00,,,0.00,Wunderground v.1.15,2013-01-02 09:23:00,
2013-01-02 03:26:00,3.7,1.2,30.26,WSW,238,0.0,0.0,89,0.00,,,0.00,Wunderground v.1.15,2013-01-02 09:26:00,
2013-01-02 03:27:00,3.6,1.1,30.26,WSW,238,0.0,0.0,89,0.00,,,0.00,Wunderground v.1.15,2013-01-02 09:27:00,
2013-01-02 03:30:00,3.7,1.2,30.26,WSW,238,0.0,0.0,89,0.00,,,0.00,Wunderground v.1.15,2013-01-02 09:30:00,
2013-01-02 03:31:00,3.7,1.2,30.26,WSW,238,0.0,0.0,89,0.00,,,0.00,Wunderground v.1.15,2013-01-02 09:31:00,
2013-01-02 03:32:00,3.8,1.3,30.26,WSW,237,0.0,0.0,89,0.00,,,0.00,Wunderground v.1.15,2013-01-02 09:32:00,
2013-01-02 03:35:00,3.9,1.4,30.26,WSW,238,0.0,0.0,89,0.00,,,0.00,Wunderground v.1.15,2013-01-02 09:35:00,
2013-01-02 03:37:00,4.0,1.5,30.25,WSW,237,0.0,0.0,89,0.00,,,0.00,Wunderground v.1.15,2013-01-02 09:37:00,
2013-01-02 03:38:00,4.0,1.5,30.25,WSW,238,0.0,0.0,89,0.00,,,0.00,Wunderground v.1.15,2013-01-02 09:38:00,
2013-01-02 03:39:00,4.0,1.5,30.25,WSW,238,0.0,0.0,89,0.00,,,0.00,Wunderground v.1.15,2013-01-02 09:39:00,
2013-01-02 03:42:00,4.0,1.5,30.26,WSW,238,0.0,0.0,89,0.00,,,0.00,Wunderground v.1.15,2013-01-02 09:42:00,
2013-01-02 03:44:00,4.0,1.5,30.26,WSW,238,0.0,0.0,89,0.00,,,0.00,Wunderground v.1.15,2013-01-02 09:44:00,
2013-01-02 03:45:00,4.0,1.5,30.26,WSW,237,0.0,0.0,89,0.00,,,0.00,Wunderground v.1.15,2013-01-02 09:45:00,
2013-01-02 03:46:00,4.0,1.5,30.25,WSW,238,0.0,0.0,89,0.00,,,0.00,Wunderground v.1.15,2013-01-02 09:46:00,
2013-01-02 03:47:00,3.9,1.4,30.25,WSW,237,0.0,0.0,89,0.00,,,0.00,Wunderground v.1.15,2013-01-02 09:47:00,
2013-01-02 03:49:00,3.9,1.4,30.25,WSW,238,0.0,0.0,89,0.00,,,0.00,Wunderground v.1.15,2013-01-02 09:49:00,
2013-01-02 03:52:00,3.9,1.4,30.25,WSW,238,0.0,0.0,89,0.00,,,0.00,Wunderground v.1.15,2013-01-02 09:52:00,
2013-01-02 03:54:00,3.9,1.4,30.25,WSW,237,0.0,0.0,89,0.00,,,0.00,Wunderground v.1.15,2013-01-02 09:54:00,
2013-01-02 03:56:00,3.9,1.4,30.25,WSW,238,0.0,0.0,89,0.00,,,0.00,Wunderground v.1.15,2013-01-02 09:56:00,
2013-01-02 03:57:00,3.9,1.4,30.25,WSW,238,0.0,0.0,89,0.00,,,0.00,Wunderground v.1.15,2013-01-02 09:57:00,
2013-01-02 03:58:00,3.9,1.4,30.25,WSW,238,0.0,0.0,89,0.00,,,0.00,Wunderground v.1.15,2013-01-02 09:58:00,
2013-01-02 04:02:00,3.9,1.4,30.25,WSW,238,0.0,0.0,89,0.00,,,0.00,Wunderground v.1.15,2013-01-02 10:02:00,
2013-01-02 04:03:00,3.9,1.4,30.24,WSW,238,0.0,0.0,89,0.00,,,0.00,Wunderground v.1.15,2013-01-02 10:03:00,
2013-01-02 04:05:00,3.9,1.4,30.24,WSW,237,0.0,0.0,89,0.00,,,0.00,Wunderground v.1.15,2013-01-02 10:05:00,
2013-01-02 04:07:00,3.9,1.4,30.24,WSW,238,0.0,0.0,89,0.00,,,0.00,Wunderground v.1.15,2013-01-02 10:07:00,
2013-01-02 04:08:00,3.9,1.4,30.24,WSW,238,0.0,0.0,89,0.00,,,0.00,Wunderground v.1.15,2013-01-02 10:08:00,
2013-01-02 04:09:00,3.9,1.4,30.24,WSW,238,0.0,0.0,89,0.00,,,0.00,Wunderground v.1.15,2013-01-02 10:09:00,
2013-01-02 04:10:00,3.9,1.4,30.24,WSW,238,0.0,0.0,89,0.00,,,0.00,Wunderground v.1.15,2013-01-02 10:10:00,
2013-01-02 04:13:00,3.8,1.3,30.24,WSW,238,0.0,0.0,89,0.00,,,0.00,Wunderground v.1.15,2013-01-02 10:13:00,
2013-01-02 04:14:00,3.8,1.3,30.23,WSW,238,0.0,0.0,89,0.00,,,0.00,Wunderground v.1.15,2013-01-02 10:14:00,
2013-01-02 04:16:00,3.9,1.4,30.24,WSW,237,0.0,0.0,89,0.00,,,0.00,Wunderground v.1.15,2013-01-02 10:16:00,
2013-01-02 04:18:00,3.7,1.2,30.24,WSW,238,0.0,0.0,89,0.00,,,0.00,Wunderground v.1.15,2013-01-02 10:18:00,
2013-01-02 04:19:00,3.7,1.2,30.24,WSW,238,0.0,0.0,89,0.00,,,0.00,Wunderground v.1.15,2013-01-02 10:19:00,
2013-01-02 04:21:00,3.7,1.2,30.24,WSW,237,0.0,0.0,89,0.00,,,0.00,Wunderground v.1.15,2013-01-02 10:21:00,
2013-01-02 04:24:00,3.6,1.1,30.24,WSW,237,0.0,0.0,89,0.00,,,0.00,Wunderground v.1.15,2013-01-02 10:24:00,
2013-01-02 04:26:00,3.6,1.1,30.23,WSW,238,0.0,0.0,89,0.00,,,0.00,Wunderground v.1.15,2013-01-02 10:26:00,
2013-01-02 04:27:00,3.6,1.1,30.23,WSW,238,0.0,0.0,89,0.00,,,0.00,Wunderground v.1.15,2013-01-02 10:27:00,
2013-01-02 04:30:00,3.6,1.1,30.24,WSW,238,0.0,0.0,89,0.00,,,0.00,Wunderground v.1.15,2013-01-02 10:30:00,
2013-01-02 04:31:00,3.7,1.2,30.24,WSW,238,0.0,0.0,89,0.00,,,0.00,Wunderground v.1.15,2013-01-02 10:31:00,
2013-01-02 04:32:00,3.6,1.1,30.24,WSW,237,0.0,0.0,89,0.00,,,0.00,Wunderground v.1.15,2013-01-02 10:32:00,
2013-01-02 04:35:00,3.6,1.1,30.24,WSW,237,0.0,0.0,89,0.00,,,0.00,Wunderground v.1.15,2013-01-02 10:35:00,
2013-01-02 04:36:00,3.6,1.1,30.24,WSW,238,0.0,0.0,89,0.00,,,0.00,Wunderground v.1.15,2013-01-02 10:36:00,
2013-01-02 04:38:00,3.6,1.1,30.24,WSW,238,0.0,0.0,89,0.00,,,0.00,Wunderground v.1.15,2013-01-02 10:38:00,
2013-01-02 04:40:00,3.6,1.1,30.24,WSW,238,0.0,0.0,89,0.00,,,0.00,Wunderground v.1.15,2013-01-02 10:40:00,
2013-01-02 04:41:00,3.5,1.0,30.24,WSW,238,0.0,0.0,89,0.00,,,0.00,Wunderground v.1.15,2013-01-02 10:41:00,
2013-01-02 04:43:00,3.5,1.0,30.24,WSW,238,0.0,0.0,89,0.00,,,0.00,Wunderground v.1.15,2013-01-02 10:43:00,
2013-01-02 04:44:00,3.5,1.0,30.24,WSW,238,0.0,0.0,89,0.00,,,0.00,Wunderground v.1.15,2013-01-02 10:44:00,
2013-01-02 04:46:00,3.5,1.0,30.24,WSW,238,0.0,0.0,89,0.00,,,0.00,Wunderground v.1.15,2013-01-02 10:46:00,
2013-01-02 04:47:00,3.4,0.9,30.24,WSW,238,0.0,0.0,89,0.00,,,0.00,Wunderground v.1.15,2013-01-02 10:47:00,
2013-01-02 04:49:00,3.5,1.0,30.24,WSW,237,0.0,0.0,89,0.00,,,0.00,Wunderground v.1.15,2013-01-02 10:49:00,
2013-01-02 04:50:00,3.5,1.0,30.24,WSW,237,0.0,0.0,89,0.00,,,0.00,Wunderground v.1.15,2013-01-02 10:50:00,
2013-01-02 04:54:00,3.5,1.0,30.24,WSW,238,0.0,0.0,89,0.00,,,0.00,Wunderground v.1.15,2013-01-02 10:54:00,
2013-01-02 04:56:00,3.5,1.0,30.24,WSW,238,0.0,0.0,89,0.00,,,0.00,Wunderground v.1.15,2013-01-02 10:56:00,
2013-01-02 04:57:00,3.5,1.0,30.24,WSW,238,0.0,0.0,89,0.00,,,0.00,Wunderground v.1.15,2013-01-02 10:57:00,
2013-01-02 04:59:00,3.6,1.1,30.24,WSW,238,0.0,0.0,89,0.00,,,0.00,Wunderground v.1.15,2013-01-02 10:59:00,
2013-01-02 05:04:00,3.8,1.3,30.24,WSW,238,0.0,0.0,89,0.00,,,0.00,Wunderground v.1.15,2013-01-02 11:04:00,
2013-01-02 05:05:00,3.7,1.2,30.24,WSW,238,0.0,0.0,89,0.00,,,0.00,Wunderground v.1.15,2013-01-02 11:05:00,
2013-01-02 05:06:00,3.8,1.3,30.24,WSW,238,0.0,0.0,89,0.00,,,0.00,Wunderground v.1.15,2013-01-02 11:06:00,
2013-01-02 05:07:00,3.8,1.3,30.24,WSW,238,0.0,0.0,89,0.00,,,0.00,Wunderground v.1.15,2013-01-02 11:07:00,
2013-01-02 05:09:00,3.8,1.3,30.24,WSW,238,0.0,0.0,89,0.00,,,0.00,Wunderground v.1.15,2013-01-02 11:09:00,
2013-01-02 05:11:00,3.8,1.3,30.24,SSE,153,0.0,0.0,89,0.00,,,0.00,Wunderground v.1.15,2013-01-02 11:11:00,
2013-01-02 05:12:00,3.8,1.3,30.24,SSE,153,0.0,0.0,89,0.00,,,0.00,Wunderground v.1.15,2013-01-02 11:12:00,
2013-01-02 05:14:00,3.8,1.3,30.24,SSE,154,0.0,0.0,89,0.00,,,0.00,Wunderground v.1.15,2013-01-02 11:14:00,
2013-01-02 05:16:00,3.7,1.2,30.24,SSE,150,0.0,0.0,89,0.00,,,0.00,Wunderground v.1.15,2013-01-02 11:16:00,
2013-01-02 05:18:00,3.8,1.3,30.24,SSE,150,0.0,0.0,89,0.00,,,0.00,Wunderground v.1.15,2013-01-02 11:18:00,
2013-01-02 05:19:00,3.8,1.3,30.24,SSE,150,0.0,0.0,89,0.00,,,0.00,Wunderground v.1.15,2013-01-02 11:19:00,
2013-01-02 05:23:00,3.9,1.4,30.24,SSE,150,0.0,0.0,89,0.00,,,0.00,Wunderground v.1.15,2013-01-02 11:23:00,
2013-01-02 05:24:00,3.9,1.4,30.24,SSE,151,0.0,0.0,89,0.00,,,0.00,Wunderground v.1.15,2013-01-02 11:24:00,
2013-01-02 05:26:00,4.1,1.6,30.25,SSE,150,0.0,0.0,89,0.00,,,0.00,Wunderground v.1.15,2013-01-02 11:26:00,
2013-01-02 05:28:00,4.2,1.7,30.25,SSE,150,0.0,0.0,89,0.00,,,0.00,Wunderground v.1.15,2013-01-02 11:28:00,
2013-01-02 05:29:00,4.3,1.8,30.25,SSE,150,0.0,0.0,89,0.00,,,0.00,Wunderground v.1.15,2013-01-02 11:29:00,
2013-01-02 05:30:00,4.4,2.1,30.25,SSE,150,0.0,0.0,90,0.00,,,0.00,Wunderground v.1.15,2013-01-02 11:30:00,
2013-01-02 05:31:00,4.4,1.9,30.25,SSE,150,0.0,0.0,89,0.00,,,0.00,Wunderground v.1.15,2013-01-02 11:31:00,
2013-01-02 05:33:00,4.4,1.9,30.25,SSE,150,0.0,0.0,89,0.00,,,0.00,Wunderground v.1.15,2013-01-02 11:33:00,
2013-01-02 05:36:00,4.5,2.0,30.24,SSE,150,0.0,0.0,89,0.00,,,0.00,Wunderground v.1.15,2013-01-02 11:36:00,
2013-01-02 05:38:00,4.5,2.0,30.24,SSE,150,0.0,0.0,89,0.00,,,0.00,Wunderground v.1.15,2013-01-02 11:38:00,
2013-01-02 05:39:00,4.4,1.9,30.24,SSE,150,0.0,0.0,89,0.00,,,0.00,Wunderground v.1.15,2013-01-02 11:39:00,
2013-01-02 05:41:00,4.5,2.0,30.24,SSE,150,0.0,0.0,89,0.00,,,0.00,Wunderground v.1.15,2013-01-02 11:41:00,
2013-01-02 05:44:00,4.5,2.0,30.24,SSE,150,0.0,0.0,89,0.00,,,0.00,Wunderground v.1.15,2013-01-02 11:44:00,
2013-01-02 05:47:00,4.5,2.0,30.24,SSE,151,0.0,0.0,89,0.00,,,0.00,Wunderground v.1.15,2013-01-02 11:47:00,
2013-01-02 05:52:00,4.6,2.1,30.24,SSE,151,0.0,0.0,89,0.00,,,0.00,Wunderground v.1.15,2013-01-02 11:52:00,
2013-01-02 05:53:00,4.6,2.1,30.24,SSE,150,0.0,0.0,89,0.00,,,0.00,Wunderground v.1.15,2013-01-02 11:53:00,
2013-01-02 05:55:00,4.5,2.0,30.24,SSE,150,0.0,0.0,89,0.00,,,0.00,Wunderground v.1.15,2013-01-02 11:55:00,
2013-01-02 05:57:00,4.5,2.0,30.24,SSE,150,0.0,0.0,89,0.00,,,0.00,Wunderground v.1.15,2013-01-02 11:57:00,
2013-01-02 05:58:00,4.5,2.0,30.24,SSE,150,0.0,0.0,89,0.00,,,0.00,Wunderground v.1.15,2013-01-02 11:58:00,
2013-01-02 06:02:00,4.5,2.0,30.24,SSE,151,0.0,0.0,89,0.00,,,0.00,Wunderground v.1.15,2013-01-02 12:02:00,
2013-01-02 06:04:00,4.5,2.0,30.24,SSE,150,0.0,0.0,89,0.00,,,0.00,Wunderground v.1.15,2013-01-02 12:04:00,
2013-01-02 06:05:00,4.5,2.0,30.24,SSE,151,0.0,0.0,89,0.00,,,0.00,Wunderground v.1.15,2013-01-02 12:05:00,
2013-01-02 06:08:00,4.5,2.0,30.24,SE,139,0.0,0.0,89,0.00,,,0.00,Wunderground v.1.15,2013-01-02 12:08:00,
2013-01-02 06:09:00,4.5,2.0,30.24,SE,140,0.0,0.0,89,0.00,,,0.00,Wunderground v.1.15,2013-01-02 12:09:00,
2013-01-02 06:10:00,4.5,2.0,30.24,SE,139,0.0,0.0,89,0.00,,,0.00,Wunderground v.1.15,2013-01-02 12:10:00,
2013-01-02 06:15:00,4.5,2.0,30.25,SE,139,0.0,0.0,89,0.00,,,0.00,Wunderground v.1.15,2013-01-02 12:15:00,
2013-01-02 06:17:00,4.5,2.0,30.24,SE,139,0.0,0.0,89,0.00,,,0.00,Wunderground v.1.15,2013-01-02 12:17:00,
2013-01-02 06:18:00,4.4,1.9,30.24,SE,139,0.0,0.0,89,0.00,,,0.00,Wunderground v.1.15,2013-01-02 12:18:00,
2013-01-02 06:19:00,4.4,1.6,30.24,SE,139,0.0,0.0,88,0.00,,,0.00,Wunderground v.1.15,2013-01-02 12:19:00,
2013-01-02 06:20:00,4.4,1.6,30.24,SE,139,0.0,0.0,88,0.00,,,0.00,Wunderground v.1.15,2013-01-02 12:20:00,
2013-01-02 06:24:00,4.4,1.9,30.24,SE,139,0.0,0.0,89,0.00,,,0.00,Wunderground v.1.15,2013-01-02 12:24:00,
2013-01-02 06:25:00,4.4,1.9,30.24,SE,140,0.0,0.0,89,0.00,,,0.00,Wunderground v.1.15,2013-01-02 12:25:00,
2013-01-02 06:29:00,4.5,2.0,30.24,SE,134,0.0,0.0,89,0.00,,,0.00,Wunderground v.1.15,2013-01-02 12:29:00,
2013-01-02 06:30:00,4.6,2.1,30.24,SE,133,0.0,0.0,89,0.00,,,0.00,Wunderground v.1.15,2013-01-02 12:30:00,
2013-01-02 06:31:00,4.6,2.1,30.24,SE,132,0.0,0.0,89,0.00,,,0.00,Wunderground v.1.15,2013-01-02 12:31:00,
2013-01-02 06:35:00,4.8,2.3,30.24,SE,136,0.0,0.0,89,0.00,,,0.00,Wunderground v.1.15,2013-01-02 12:35:00,
2013-01-02 06:37:00,5.0,2.5,30.24,SE,125,0.0,0.0,89,0.00,,,0.00,Wunderground v.1.15,2013-01-02 12:37:00,
2013-01-02 06:39:00,5.1,2.6,30.25,SE,128,0.0,0.0,89,0.00,,,0.00,Wunderground v.1.15,2013-01-02 12:39:00,
2013-01-02 06:40:00,5.2,2.7,30.24,SE,136,0.0,0.0,89,0.00,,,0.00,Wunderground v.1.15,2013-01-02 12:40:00,
2013-01-02 06:41:00,5.2,2.7,30.25,SE,134,0.0,0.0,89,0.00,,,0.00,Wunderground v.1.15,2013-01-02 12:41:00,
2013-01-02 06:46:00,5.4,2.9,30.25,SSE,150,0.0,0.0,89,0.00,,,0.00,Wunderground v.1.15,2013-01-02 12:46:00,
2013-01-02 06:49:00,5.5,3.0,30.25,SE,145,0.0,0.0,89,0.00,,,0.00,Wunderground v.1.15,2013-01-02 12:49:00,
2013-01-02 06:51:00,5.5,3.0,30.25,SE,142,0.0,0.0,89,0.00,,,0.00,Wunderground v.1.15,2013-01-02 12:51:00,
2013-01-02 06:55:00,5.5,2.7,30.25,SE,136,0.0,0.0,88,0.00,,,0.00,Wunderground v.1.15,2013-01-02 12:55:00,
2013-01-02 06:56:00,5.5,2.7,30.25,SE,146,0.0,0.0,88,0.00,,,0.00,Wunderground v.1.15,2013-01-02 12:56:00,
2013-01-02 06:57:00,5.5,2.7,30.25,SSE,163,0.0,0.0,88,0.00,,,0.00,Wunderground v.1.15,2013-01-02 12:57:00,
2013-01-02 07:00:00,5.6,2.8,30.25,SE,134,0.0,0.0,88,0.00,,,0.00,Wunderground v.1.15,2013-01-02 13:00:00,
2013-01-02 07:01:00,5.6,2.8,30.25,SE,139,0.0,0.0,88,0.00,,,0.00,Wunderground v.1.15,2013-01-02 13:01:00,
2013-01-02 07:02:00,5.6,2.8,30.25,SE,145,0.0,0.0,88,0.00,,,0.00,Wunderground v.1.15,2013-01-02 13:02:00,
2013-01-02 07:06:00,5.7,2.9,30.25,SE,136,0.0,0.0,88,0.00,,,0.00,Wunderground v.1.15,2013-01-02 13:06:00,
2013-01-02 07:07:00,5.7,2.9,30.25,ESE,120,0.0,0.0,88,0.00,,,0.00,Wunderground v.1.15,2013-01-02 13:07:00,
2013-01-02 07:10:00,5.8,3.0,30.25,SE,128,0.0,0.0,88,0.00,,,0.00,Wunderground v.1.15,2013-01-02 13:10:00,
2013-01-02 07:11:00,5.8,3.0,30.25,ESE,119,0.0,0.0,88,0.00,,,0.00,Wunderground v.1.15,2013-01-02 13:11:00,
2013-01-02 07:13:00,5.8,3.0,30.25,SE,128,0.0,0.0,88,0.00,,,0.00,Wunderground v.1.15,2013-01-02 13:13:00,
2013-01-02 07:15:00,5.8,3.0,30.25,SE,129,0.0,0.0,88,0.00,,,0.00,Wunderground v.1.15,2013-01-02 13:15:00,
2013-01-02 07:19:00,5.9,3.1,30.25,SE,134,0.0,0.0,88,0.00,,,0.00,Wunderground v.1.15,2013-01-02 13:19:00,
2013-01-02 07:20:00,5.9,3.1,30.26,SE,145,0.0,0.0,88,0.00,,,0.00,Wunderground v.1.15,2013-01-02 13:20:00,
2013-01-02 07:22:00,5.9,3.1,30.26,SE,129,0.0,0.0,88,0.00,,,0.00,Wunderground v.1.15,2013-01-02 13:22:00,
2013-01-02 07:25:00,6.0,3.2,30.25,SE,136,0.0,0.0,88,0.00,,,0.00,Wunderground v.1.15,2013-01-02 13:25:00,
2013-01-02 07:26:00,6.0,3.2,30.26,SE,146,0.0,0.0,88,0.00,,,0.00,Wunderground v.1.15,2013-01-02 13:26:00,
2013-01-02 07:28:00,6.1,3.3,30.26,SE,136,0.0,0.0,88,0.00,,,0.00,Wunderground v.1.15,2013-01-02 13:28:00,
2013-01-02 07:30:00,6.1,3.3,30.26,SE,136,0.0,0.0,88,0.00,,,0.00,Wunderground v.1.15,2013-01-02 13:30:00,
2013-01-02 07:32:00,6.1,3.3,30.26,SSE,155,0.0,0.0,88,0.00,,,0.00,Wunderground v.1.15,2013-01-02 13:32:00,
2013-01-02 07:34:00,6.2,3.4,30.26,SSE,149,0.0,0.0,88,0.00,,,0.00,Wunderground v.1.15,2013-01-02 13:34:00,
2013-01-02 07:37:00,6.2,3.4,30.26,SSE,158,0.0,0.0,88,0.00,,,0.00,Wunderground v.1.15,2013-01-02 13:37:00,
2013-01-02 07:38:00,6.3,3.5,30.26,SSE,162,0.0,0.0,88,0.00,,,0.00,Wunderground v.1.15,2013-01-02 13:38:00,
2013-01-02 07:39:00,6.3,3.5,30.26,SSE,156,0.0,0.0,88,0.00,,,0.00,Wunderground v.1.15,2013-01-02 13:39:00,
2013-01-02 07:42:00,6.4,3.6,30.26,SE,142,0.0,0.0,88,0.00,,,0.00,Wunderground v.1.15,2013-01-02 13:42:00,
2013-01-02 07:44:00,6.5,3.7,30.26,SE,139,0.0,0.0,88,0.00,,,0.00,Wunderground v.1.15,2013-01-02 13:44:00,
2013-01-02 07:47:00,6.7,3.9,30.26,ESE,119,0.0,0.0,88,0.00,,,0.00,Wunderground v.1.15,2013-01-02 13:47:00,
2013-01-02 07:48:00,6.8,4.0,30.26,SE,125,0.0,0.0,88,0.00,,,0.00,Wunderground v.1.15,2013-01-02 13:48:00,
2013-01-02 07:49:00,7.0,4.2,30.26,ESE,119,0.0,0.0,88,0.00,,,0.00,Wunderground v.1.15,2013-01-02 13:49:00,
2013-01-02 07:52:00,7.1,4.3,30.25,ESE,122,0.0,0.0,88,0.00,,,0.00,Wunderground v.1.15,2013-01-02 13:52:00,
2013-01-02 07:54:00,7.3,4.5,30.25,ESE,118,0.0,0.0,88,0.00,,,0.00,Wunderground v.1.15,2013-01-02 13:54:00,
2013-01-02 07:57:00,7.4,4.6,30.26,SE,136,0.0,0.0,88,0.00,,,0.00,Wunderground v.1.15,2013-01-02 13:57:00,
2013-01-02 08:01:00,7.8,5.0,30.26,ESE,121,0.0,0.0,88,0.00,,,0.00,Wunderground v.1.15,2013-01-02 14:01:00,
2013-01-02 08:02:00,7.9,5.1,30.25,SE,132,0.0,0.0,88,0.00,,,0.00,Wunderground v.1.15,2013-01-02 14:02:00,
2013-01-02 08:04:00,8.0,5.2,30.25,SE,142,0.0,0.0,88,0.00,,,0.00,Wunderground v.1.15,2013-01-02 14:04:00,
2013-01-02 08:07:00,8.3,5.5,30.25,SE,134,0.0,0.0,88,0.00,,,0.00,Wunderground v.1.15,2013-01-02 14:07:00,
2013-01-02 08:09:00,8.4,5.6,30.25,SE,143,0.0,0.0,88,0.00,,,0.00,Wunderground v.1.15,2013-01-02 14:09:00,
2013-01-02 08:10:00,8.5,5.7,30.25,SE,136,0.0,0.0,88,0.00,,,0.00,Wunderground v.1.15,2013-01-02 14:10:00,
2013-01-02 08:14:00,8.8,6.0,30.25,SE,145,0.0,0.0,88,0.00,,,0.00,Wunderground v.1.15,2013-01-02 14:14:00,
2013-01-02 08:15:00,9.0,6.2,30.25,SSE,149,0.0,0.0,88,0.00,,,0.00,Wunderground v.1.15,2013-01-02 14:15:00,
2013-01-02 08:16:00,9.1,6.3,30.25,SE,146,0.0,0.0,88,0.00,,,0.00,Wunderground v.1.15,2013-01-02 14:16:00,
2013-01-02 08:17:00,9.2,6.4,30.25,SSE,157,0.0,3.0,88,0.00,,,0.00,Wunderground v.1.15,2013-01-02 14:17:00,
2013-01-02 08:20:00,9.6,6.8,30.25,SSE,148,1.0,3.0,88,0.00,,,0.00,Wunderground v.1.15,2013-01-02 14:20:00,
2013-01-02 08:21:00,9.7,6.9,30.25,SSE,162,1.0,3.0,88,0.00,,,0.00,Wunderground v.1.15,2013-01-02 14:21:00,
2013-01-02 08:24:00,10.0,7.2,30.25,SSE,160,2.0,3.0,88,0.00,,,0.00,Wunderground v.1.15,2013-01-02 14:24:00,
2013-01-02 08:26:00,10.2,7.4,30.25,South,173,2.0,3.0,88,0.00,,,0.00,Wunderground v.1.15,2013-01-02 14:26:00,
2013-01-02 08:28:00,10.3,7.5,30.25,SSE,155,2.0,3.0,88,0.00,,,0.00,Wunderground v.1.15,2013-01-02 14:28:00,
2013-01-02 08:29:00,10.5,7.4,30.25,South,170,2.0,2.0,87,0.00,,,0.00,Wunderground v.1.15,2013-01-02 14:29:00,
2013-01-02 08:33:00,10.9,7.8,30.25,SE,143,3.0,4.0,87,0.00,,,0.00,Wunderground v.1.15,2013-01-02 14:33:00,
2013-01-02 08:34:00,11.0,7.9,30.25,South,175,3.0,4.0,87,0.00,,,0.00,Wunderground v.1.15,2013-01-02 14:34:00,
2013-01-02 08:37:00,11.3,8.2,30.25,SE,138,2.0,4.0,87,0.00,,,0.00,Wunderground v.1.15,2013-01-02 14:37:00,
2013-01-02 08:39:00,11.5,8.4,30.25,SSW,203,2.0,4.0,87,0.00,,,0.00,Wunderground v.1.15,2013-01-02 14:39:00,
2013-01-02 08:42:00,11.7,8.6,30.25,SSE,159,2.0,3.0,87,0.00,,,0.00,Wunderground v.1.15,2013-01-02 14:42:00,
2013-01-02 08:44:00,12.0,8.9,30.25,South,170,3.0,3.0,87,0.00,,,0.00,Wunderground v.1.15,2013-01-02 14:44:00,
2013-01-02 08:46:00,12.3,9.2,30.25,SSE,165,3.0,5.0,87,0.00,,,0.00,Wunderground v.1.15,2013-01-02 14:46:00,
2013-01-02 08:47:00,12.4,9.3,30.25,South,169,3.0,5.0,87,0.00,,,0.00,Wunderground v.1.15,2013-01-02 14:47:00,
2013-01-02 08:49:00,12.7,9.3,30.25,SSW,193,3.0,5.0,86,0.00,,,0.00,Wunderground v.1.15,2013-01-02 14:49:00,
2013-01-02 08:51:00,12.9,9.5,30.25,SSE,161,3.0,3.0,86,0.00,,,0.00,Wunderground v.1.15,2013-01-02 14:51:00,
2013-01-02 08:52:00,13.0,9.6,30.25,South,176,3.0,4.0,86,0.00,,,0.00,Wunderground v.1.15,2013-01-02 14:52:00,
2013-01-02 08:56:00,13.4,9.7,30.24,SSE,159,3.0,5.0,85,0.00,,,0.00,Wunderground v.1.15,2013-01-02 14:56:00,
2013-01-02 08:57:00,13.4,9.7,30.25,South,174,3.0,5.0,85,0.00,,,0.00,Wunderground v.1.15,2013-01-02 14:57:00,
2013-01-02 08:58:00,13.5,9.8,30.25,SE,129,4.0,5.0,85,0.00,,,0.00,Wunderground v.1.15,2013-01-02 14:58:00,
2013-01-02 08:59:00,13.6,9.9,30.24,South,186,4.0,5.0,85,0.00,,,0.00,Wunderground v.1.15,2013-01-02 14:59:00,
2013-01-02 09:01:00,13.7,9.8,30.24,SSE,151,4.0,5.0,84,0.00,,,0.00,Wunderground v.1.15,2013-01-02 15:01:00,
2013-01-02 09:03:00,13.9,10.0,30.24,SSE,162,4.0,6.0,84,0.00,,,0.00,Wunderground v.1.15,2013-01-02 15:03:00,
2013-01-02 09:04:00,14.0,10.1,30.24,South,179,4.0,6.0,84,0.00,,,0.00,Wunderground v.1.15,2013-01-02 15:04:00,
2013-01-02 09:07:00,14.1,9.9,30.24,SSE,150,4.0,6.0,83,0.00,,,0.00,Wunderground v.1.15,2013-01-02 15:07:00,
2013-01-02 09:08:00,14.2,10.0,30.24,SSE,163,4.0,6.0,83,0.00,,,0.00,Wunderground v.1.15,2013-01-02 15:08:00,
2013-01-02 09:10:00,14.3,10.1,30.24,SSE,147,4.0,5.0,83,0.00,,,0.00,Wunderground v.1.15,2013-01-02 15:10:00,
2013-01-02 09:11:00,14.4,10.2,30.25,SE,142,4.0,5.0,83,0.00,,,0.00,Wunderground v.1.15,2013-01-02 15:11:00,
2013-01-02 09:12:00,14.4,10.2,30.25,South,181,5.0,5.0,83,0.00,,,0.00,Wunderground v.1.15,2013-01-02 15:12:00,
2013-01-02 09:13:00,14.5,10.3,30.25,SSE,149,5.0,6.0,83,0.00,,,0.00,Wunderground v.1.15,2013-01-02 15:13:00,
2013-01-02 09:18:00,14.7,10.2,30.24,South,176,5.0,7.0,82,0.00,,,0.00,Wunderground v.1.15,2013-01-02 15:18:00,
2013-01-02 09:19:00,14.8,10.3,30.24,SSE,150,5.0,7.0,82,0.00,,,0.00,Wunderground v.1.15,2013-01-02 15:19:00,
2013-01-02 09:21:00,14.9,10.1,30.24,SSE,165,5.0,6.0,81,0.00,,,0.00,Wunderground v.1.15,2013-01-02 15:21:00,
2013-01-02 09:23:00,15.1,10.3,30.24,SSE,162,5.0,6.0,81,0.00,,,0.00,Wunderground v.1.15,2013-01-02 15:23:00,
2013-01-02 09:26:00,15.5,10.7,30.24,SSE,166,5.0,6.0,81,0.00,,,0.00,Wunderground v.1.15,2013-01-02 15:26:00,
2013-01-02 09:29:00,15.8,11.0,30.24,SSE,162,5.0,7.0,81,0.00,,,0.00,Wunderground v.1.15,2013-01-02 15:29:00,
2013-01-02 09:31:00,16.0,11.2,30.24,SSW,197,5.0,5.0,81,0.00,,,0.00,Wunderground v.1.15,2013-01-02 15:31:00,
2013-01-02 09:32:00,16.1,11.3,30.24,SSE,166,5.0,7.0,81,0.00,,,0.00,Wunderground v.1.15,2013-01-02 15:32:00,
2013-01-02 09:33:00,16.2,11.4,30.24,South,179,5.0,7.0,81,0.00,,,0.00,Wunderground v.1.15,2013-01-02 15:33:00,
2013-01-02 09:34:00,16.3,11.5,30.24,SSE,159,5.0,7.0,81,0.00,,,0.00,Wunderground v.1.15,2013-01-02 15:34:00,
2013-01-02 09:36:00,16.5,11.4,30.24,SSE,161,5.0,7.0,80,0.00,,,0.00,Wunderground v.1.15,2013-01-02 15:36:00,
2013-01-02 09:39:00,16.6,11.5,30.24,South,179,5.0,7.0,80,0.00,,,0.00,Wunderground v.1.15,2013-01-02 15:39:00,
2013-01-02 09:41:00,16.9,11.8,30.24,South,172,5.0,6.0,80,0.00,,,0.00,Wunderground v.1.15,2013-01-02 15:41:00,
2013-01-02 09:42:00,17.0,11.6,30.24,SE,139,5.0,6.0,79,0.00,,,0.00,Wunderground v.1.15,2013-01-02 15:42:00,
2013-01-02 09:46:00,17.2,11.8,30.24,SSE,162,5.0,6.0,79,0.00,,,0.00,Wunderground v.1.15,2013-01-02 15:46:00,
2013-01-02 09:48:00,17.3,11.6,30.24,South,179,5.0,6.0,78,0.00,,,0.00,Wunderground v.1.15,2013-01-02 15:48:00,
2013-01-02 09:49:00,17.4,12.0,30.24,South,169,5.0,6.0,79,0.00,,,0.00,Wunderground v.1.15,2013-01-02 15:49:00,
2013-01-02 09:52:00,17.9,12.5,30.24,South,189,5.0,6.0,79,0.00,,,0.00,Wunderground v.1.15,2013-01-02 15:52:00,
2013-01-02 09:53:00,18.0,12.6,30.24,SSW,206,5.0,7.0,79,0.00,,,0.00,Wunderground v.1.15,2013-01-02 15:53:00,
2013-01-02 09:55:00,18.2,12.2,30.24,SSE,163,5.0,8.0,77,0.00,,,0.00,Wunderground v.1.15,2013-01-02 15:55:00,
2013-01-02 09:57:00,18.4,12.4,30.24,South,191,6.0,8.0,77,0.00,,,0.00,Wunderground v.1.15,2013-01-02 15:57:00,
2013-01-02 09:59:00,18.4,12.1,30.24,South,180,6.0,8.0,76,0.00,,,0.00,Wunderground v.1.15,2013-01-02 15:59:00,
2013-01-02 10:02:00,18.6,12.3,30.24,SSE,165,6.0,7.0,76,0.00,,,0.00,Wunderground v.1.15,2013-01-02 16:02:00,
2013-01-02 10:04:00,18.8,12.5,30.24,South,170,6.0,7.0,76,0.00,,,0.00,Wunderground v.1.15,2013-01-02 16:04:00,
2013-01-02 10:05:00,18.9,12.6,30.24,SE,145,6.0,7.0,76,0.00,,,0.00,Wunderground v.1.15,2013-01-02 16:05:00,
2013-01-02 10:06:00,19.0,12.7,30.24,SSE,155,6.0,7.0,76,0.00,,,0.00,Wunderground v.1.15,2013-01-02 16:06:00,
2013-01-02 10:09:00,19.5,13.5,30.24,South,180,5.0,7.0,77,0.00,,,0.00,Wunderground v.1.15,2013-01-02 16:09:00,
2013-01-02 10:10:00,19.6,13.3,30.24,South,186,5.0,5.0,76,0.00,,,0.00,Wunderground v.1.15,2013-01-02 16:10:00,
2013-01-02 10:12:00,19.8,13.2,30.23,South,191,5.0,6.0,75,0.00,,,0.00,Wunderground v.1.15,2013-01-02 16:12:00,
2013-01-02 10:13:00,20.0,13.0,30.23,SSW,206,5.0,6.0,74,0.00,,,0.00,Wunderground v.1.15,2013-01-02 16:13:00,
2013-01-02 10:17:00,20.5,13.2,30.23,SSW,195,5.0,7.0,73,0.00,,,0.00,Wunderground v.1.15,2013-01-02 16:17:00,
2013-01-02 10:18:00,20.6,13.0,30.23,SSW,210,5.0,7.0,72,0.00,,,0.00,Wunderground v.1.15,2013-01-02 16:18:00,
2013-01-02 10:20:00,20.9,13.6,30.23,SSW,195,5.0,9.0,73,0.00,,,0.00,Wunderground v.1.15,2013-01-02 16:20:00,
2013-01-02 10:23:00,21.0,12.7,30.23,SSE,164,6.0,9.0,70,0.00,,,0.00,Wunderground v.1.15,2013-01-02 16:23:00,
2013-01-02 10:24:00,21.1,12.2,30.23,SSW,208,6.0,10.0,68,0.00,,,0.00,Wunderground v.1.15,2013-01-02 16:24:00,
2013-01-02 10:25:00,21.2,11.9,30.23,South,191,6.0,10.0,67,0.00,,,0.00,Wunderground v.1.15,2013-01-02 16:25:00,
2013-01-02 10:26:00,21.2,11.9,30.23,SSW,208,7.0,10.0,67,0.00,,,0.00,Wunderground v.1.15,2013-01-02 16:26:00,
2013-01-02 10:28:00,21.2,11.6,30.23,South,186,7.0,10.0,66,0.00,,,0.00,Wunderground v.1.15,2013-01-02 16:28:00,
2013-01-02 10:29:00,21.3,12.0,30.23,SSW,207,8.0,10.0,67,0.00,,,0.00,Wunderground v.1.15,2013-01-02 16:29:00,
2013-01-02 10:32:00,21.6,12.7,30.22,SSE,158,8.0,10.0,68,0.00,,,0.00,Wunderground v.1.15,2013-01-02 16:32:00,
2013-01-02 10:33:00,21.7,13.1,30.22,South,174,7.0,10.0,69,0.00,,,0.00,Wunderground v.1.15,2013-01-02 16:33:00,
2013-01-02 10:34:00,22.0,13.0,30.22,SSW,198,7.0,10.0,68,0.00,,,0.00,Wunderground v.1.15,2013-01-02 16:34:00,
2013-01-02 10:37:00,22.2,12.9,30.22,SSW,200,6.0,10.0,67,0.00,,,0.00,Wunderground v.1.15,2013-01-02 16:37:00,
2013-01-02 10:38:00,22.3,12.7,30.22,South,172,6.0,10.0,66,0.00,,,0.00,Wunderground v.1.15,2013-01-02 16:38:00,
2013-01-02 10:42:00,22.5,12.1,30.22,SSW,200,6.0,9.0,64,0.00,,,0.00,Wunderground v.1.15,2013-01-02 16:42:00,
2013-01-02 10:43:00,22.5,11.8,30.22,SSW,195,7.0,9.0,63,0.00,,,0.00,Wunderground v.1.15,2013-01-02 16:43:00,
2013-01-02 10:48:00,22.6,11.5,30.22,SSW,198,8.0,11.0,62,0.00,,,0.00,Wunderground v.1.15,2013-01-02 16:48:00,
2013-01-02 10:49:00,22.7,11.6,30.22,SSW,195,8.0,8.0,62,0.00,,,0.00,Wunderground v.1.15,2013-01-02 16:49:00,
2013-01-02 10:51:00,22.7,11.6,30.22,SSW,195,8.0,8.0,62,0.00,,,0.00,Wunderground v.1.15,2013-01-02 16:51:00,
2013-01-02 10:53:00,22.9,12.2,30.21,South,190,8.0,8.0,63,0.00,,,0.00,Wunderground v.1.15,2013-01-02 16:53:00,
2013-01-02 10:55:00,23.1,12.4,30.22,SSW,200,7.0,8.0,63,0.00,,,0.00,Wunderground v.1.15,2013-01-02 16:55:00,
2013-01-02 10:57:00,23.2,12.1,30.22,SSE,165,7.0,8.0,62,0.00,,,0.00,Wunderground v.1.15,2013-01-02 16:57:00,
2013-01-02 10:59:00,23.4,12.6,30.21,South,174,7.0,8.0,63,0.00,,,0.00,Wunderground v.1.15,2013-01-02 16:59:00,
2013-01-02 11:00:00,23.6,13.2,30.21,SSW,205,7.0,7.0,64,0.00,,,0.00,Wunderground v.1.15,2013-01-02 17:00:00,
2013-01-02 11:05:00,23.9,12.8,30.21,SW,215,7.0,9.0,62,0.00,,,0.00,Wunderground v.1.15,2013-01-02 17:05:00,
2013-01-02 11:06:00,23.9,12.4,30.21,SSW,208,7.0,9.0,61,0.00,,,0.00,Wunderground v.1.15,2013-01-02 17:06:00,
2013-01-02 11:09:00,23.8,12.3,30.21,SSW,204,7.0,10.0,61,0.00,,,0.00,Wunderground v.1.15,2013-01-02 17:09:00,
2013-01-02 11:11:00,23.8,12.7,30.21,SW,215,8.0,8.0,62,0.00,,,0.00,Wunderground v.1.15,2013-01-02 17:11:00,
2013-01-02 11:12:00,23.9,13.1,30.21,SSW,195,8.0,8.0,63,0.00,,,0.00,Wunderground v.1.15,2013-01-02 17:12:00,
2013-01-02 11:15:00,24.0,12.9,30.20,SSW,205,8.0,8.0,62,0.00,,,0.00,Wunderground v.1.15,2013-01-02 17:15:00,
2013-01-02 11:16:00,24.0,12.5,30.21,SSW,198,8.0,8.0,61,0.00,,,0.00,Wunderground v.1.15,2013-01-02 17:16:00,
2013-01-02 11:17:00,24.1,13.3,30.21,SSW,200,8.0,8.0,63,0.00,,,0.00,Wunderground v.1.15,2013-01-02 17:17:00,
2013-01-02 11:21:00,24.3,13.5,30.20,SSW,200,7.0,9.0,63,0.00,,,0.00,Wunderground v.1.15,2013-01-02 17:21:00,
2013-01-02 11:22:00,24.3,13.1,30.20,SSW,198,7.0,9.0,62,0.00,,,0.00,Wunderground v.1.15,2013-01-02 17:22:00,
2013-01-02 11:24:00,24.3,12.8,30.20,SSW,195,8.0,11.0,61,0.00,,,0.00,Wunderground v.1.15,2013-01-02 17:24:00,
2013-01-02 11:27:00,24.2,13.0,30.20,SSW,195,8.0,11.0,62,0.00,,,0.00,Wunderground v.1.15,2013-01-02 17:27:00,
2013-01-02 11:29:00,24.2,13.4,30.20,SW,215,8.0,11.0,63,0.00,,,0.00,Wunderground v.1.15,2013-01-02 17:29:00,
2013-01-02 11:30:00,24.3,13.5,30.20,SSW,193,9.0,9.0,63,0.00,,,0.00,Wunderground v.1.15,2013-01-02 17:30:00,
2013-01-02 11:32:00,24.3,13.5,30.20,SSE,167,9.0,10.0,63,0.00,,,0.00,Wunderground v.1.15,2013-01-02 17:32:00,
2013-01-02 11:35:00,24.5,14.1,30.19,SSW,195,8.0,10.0,64,0.00,,,0.00,Wunderground v.1.15,2013-01-02 17:35:00,
2013-01-02 11:37:00,24.5,14.1,30.19,SSW,193,8.0,10.0,64,0.00,,,0.00,Wunderground v.1.15,2013-01-02 17:37:00,
2013-01-02 11:39:00,24.6,13.8,30.19,South,188,8.0,10.0,63,0.00,,,0.00,Wunderground v.1.15,2013-01-02 17:39:00,
2013-01-02 11:42:00,24.6,14.5,30.19,SSW,200,8.0,8.0,65,0.00,,,0.00,Wunderground v.1.15,2013-01-02 17:42:00,
2013-01-02 11:44:00,24.6,13.8,30.19,South,172,8.0,11.0,63,0.00,,,0.00,Wunderground v.1.15,2013-01-02 17:44:00,
2013-01-02 11:46:00,24.6,13.8,30.19,SSW,195,9.0,11.0,63,0.00,,,0.00,Wunderground v.1.15,2013-01-02 17:46:00,
2013-01-02 11:48:00,24.7,14.2,30.19,SSW,206,9.0,11.0,64,0.00,,,0.00,Wunderground v.1.15,2013-01-02 17:48:00,
2013-01-02 11:51:00,24.7,13.9,30.19,SSW,208,9.0,9.0,63,0.00,,,0.00,Wunderground v.1.15,2013-01-02 17:51:00,
2013-01-02 11:52:00,24.7,14.2,30.19,SSW,193,9.0,9.0,64,0.00,,,0.00,Wunderground v.1.15,2013-01-02 17:52:00,
2013-01-02 11:55:00,24.7,14.6,30.19,SSW,195,9.0,9.0,65,0.00,,,0.00,Wunderground v.1.15,2013-01-02 17:55:00,
2013-01-02 11:57:00,24.7,14.6,30.19,South,173,9.0,10.0,65,0.00,,,0.00,Wunderground v.1.15,2013-01-02 17:57:00,
2013-01-02 11:58:00,24.7,14.6,30.19,SSW,193,9.0,10.0,65,0.00,,,0.00,Wunderground v.1.15,2013-01-02 17:58:00,
2013-01-02 12:01:00,24.7,14.6,30.19,South,176,9.0,9.0,65,0.00,,,0.00,Wunderground v.1.15,2013-01-02 18:01:00,
2013-01-02 12:03:00,24.8,14.7,30.19,South,184,9.0,9.0,65,0.00,,,0.00,Wunderground v.1.15,2013-01-02 18:03:00,
2013-01-02 12:05:00,24.9,15.1,30.18,South,190,9.0,11.0,66,0.00,,,0.00,Wunderground v.1.15,2013-01-02 18:05:00,
2013-01-02 12:06:00,25.0,15.2,30.18,SSW,206,9.0,11.0,66,0.00,,,0.00,Wunderground v.1.15,2013-01-02 18:06:00,
2013-01-02 12:09:00,25.0,14.9,30.18,SSW,198,9.0,11.0,65,0.00,,,0.00,Wunderground v.1.15,2013-01-02 18:09:00,
2013-01-02 12:10:00,25.1,15.7,30.18,SSW,211,8.0,9.0,67,0.00,,,0.00,Wunderground v.1.15,2013-01-02 18:10:00,
2013-01-02 12:11:00,25.2,15.4,30.18,South,191,8.0,9.0,66,0.00,,,0.00,Wunderground v.1.15,2013-01-02 18:11:00,
2013-01-02 12:15:00,25.5,15.7,30.18,South,174,8.0,9.0,66,0.00,,,0.00,Wunderground v.1.15,2013-01-02 18:15:00,
2013-01-02 12:18:00,25.7,16.3,30.18,South,186,8.0,10.0,67,0.00,,,0.00,Wunderground v.1.15,2013-01-02 18:18:00,
2013-01-02 12:20:00,25.7,16.3,30.18,SSW,210,8.0,8.0,67,0.00,,,0.00,Wunderground v.1.15,2013-01-02 18:20:00,
2013-01-02 12:21:00,25.7,16.3,30.18,SSW,200,8.0,8.0,67,0.00,,,0.00,Wunderground v.1.15,2013-01-02 18:21:00,
2013-01-02 12:23:00,25.8,16.3,30.18,SW,215,8.0,8.0,67,0.00,,,0.00,Wunderground v.1.15,2013-01-02 18:23:00,
2013-01-02 12:24:00,25.8,16.7,30.18,South,177,8.0,9.0,68,0.00,,,0.00,Wunderground v.1.15,2013-01-02 18:24:00,
2013-01-02 12:25:00,25.9,16.4,30.18,South,172,8.0,9.0,67,0.00,,,0.00,Wunderground v.1.15,2013-01-02 18:25:00,
2013-01-02 12:28:00,26.1,17.0,30.18,South,190,8.0,9.0,68,0.00,,,0.00,Wunderground v.1.15,2013-01-02 18:28:00,
2013-01-02 12:30:00,26.3,17.2,30.18,SW,218,7.0,7.0,68,0.00,,,0.00,Wunderground v.1.15,2013-01-02 18:30:00,
2013-01-02 12:32:00,26.4,17.3,30.18,SSW,211,7.0,8.0,68,0.00,,,0.00,Wunderground v.1.15,2013-01-02 18:32:00,
2013-01-02 12:33:00,26.5,17.0,30.18,South,173,7.0,8.0,67,0.00,,,0.00,Wunderground v.1.15,2013-01-02 18:33:00,
2013-01-02 12:34:00,26.5,17.4,30.18,South,184,7.0,8.0,68,0.00,,,0.00,Wunderground v.1.15,2013-01-02 18:34:00,
2013-01-02 12:37:00,26.7,17.2,30.18,SSW,205,7.0,10.0,67,0.00,,,0.00,Wunderground v.1.15,2013-01-02 18:37:00,
2013-01-02 12:38:00,26.7,17.6,30.18,SSE,158,8.0,10.0,68,0.00,,,0.00,Wunderground v.1.15,2013-01-02 18:38:00,
2013-01-02 12:40:00,26.7,17.2,30.18,SSW,201,8.0,8.0,67,0.00,,,0.00,Wunderground v.1.15,2013-01-02 18:40:00,
2013-01-02 12:43:00,26.7,17.6,30.18,SSW,207,8.0,11.0,68,0.00,,,0.00,Wunderground v.1.15,2013-01-02 18:43:00,
2013-01-02 12:44:00,26.8,17.3,30.18,South,170,9.0,13.0,67,0.00,,,0.00,Wunderground v.1.15,2013-01-02 18:44:00,
2013-01-02 12:45:00,26.7,16.9,30.18,SSW,192,9.0,13.0,66,0.00,,,0.00,Wunderground v.1.15,2013-01-02 18:45:00,
2013-01-02 12:47:00,26.8,17.6,30.17,SSW,198,9.0,13.0,68,0.00,,,0.00,Wunderground v.1.15,2013-01-02 18:47:00,
2013-01-02 12:49:00,26.9,17.7,30.17,South,179,9.0,13.0,68,0.00,,,0.00,Wunderground v.1.15,2013-01-02 18:49:00,
2013-01-02 12:50:00,26.9,17.4,30.17,SSW,210,9.0,13.0,67,0.00,,,0.00,Wunderground v.1.15,2013-01-02 18:50:00,
2013-01-02 12:54:00,26.8,17.6,30.17,SSW,201,9.0,13.0,68,0.00,,,0.00,Wunderground v.1.15,2013-01-02 18:54:00,
2013-01-02 12:57:00,27.0,17.8,30.17,South,188,9.0,13.0,68,0.00,,,0.00,Wunderground v.1.15,2013-01-02 18:57:00,
2013-01-02 12:58:00,27.0,18.2,30.17,SW,223,9.0,13.0,69,0.00,,,0.00,Wunderground v.1.15,2013-01-02 18:58:00,
2013-01-02 13:00:00,27.1,17.9,30.17,SSW,197,9.0,10.0,68,0.00,,,0.00,Wunderground v.1.15,2013-01-02 19:00:00,
2013-01-02 13:03:00,27.2,18.0,30.17,SW,215,8.0,13.0,68,0.00,,,0.00,Wunderground v.1.15,2013-01-02 19:03:00,
2013-01-02 13:07:00,27.1,17.9,30.17,SW,218,9.0,13.0,68,0.00,,,0.00,Wunderground v.1.15,2013-01-02 19:07:00,
2013-01-02 13:08:00,27.2,18.4,30.16,SSW,205,9.0,13.0,69,0.00,,,0.00,Wunderground v.1.15,2013-01-02 19:08:00,
2013-01-02 13:09:00,27.3,18.5,30.16,South,186,9.0,13.0,69,0.00,,,0.00,Wunderground v.1.15,2013-01-02 19:09:00,
2013-01-02 13:13:00,27.7,18.5,30.17,SSW,205,8.0,9.0,68,0.00,,,0.00,Wunderground v.1.15,2013-01-02 19:13:00,
2013-01-02 13:15:00,27.8,18.6,30.16,SSW,205,7.0,9.0,68,0.00,,,0.00,Wunderground v.1.15,2013-01-02 19:15:00,
2013-01-02 13:16:00,27.8,18.6,30.16,SSW,212,7.0,9.0,68,0.00,,,0.00,Wunderground v.1.15,2013-01-02 19:16:00,
2013-01-02 13:18:00,27.9,19.0,30.16,SSW,195,7.0,11.0,69,0.00,,,0.00,Wunderground v.1.15,2013-01-02 19:18:00,
2013-01-02 13:20:00,28.1,19.2,30.16,SSW,198,7.0,10.0,69,0.00,,,0.00,Wunderground v.1.15,2013-01-02 19:20:00,
2013-01-02 13:23:00,28.1,19.2,30.16,SW,219,8.0,10.0,69,0.00,,,0.00,Wunderground v.1.15,2013-01-02 19:23:00,
2013-01-02 13:25:00,28.3,19.4,30.16,South,188,9.0,10.0,69,0.00,,,0.00,Wunderground v.1.15,2013-01-02 19:25:00,
2013-01-02 13:26:00,28.3,19.4,30.16,SSW,201,9.0,10.0,69,0.00,,,0.00,Wunderground v.1.15,2013-01-02 19:26:00,
2013-01-02 13:30:00,28.5,19.6,30.16,SW,215,9.0,10.0,69,0.00,,,0.00,Wunderground v.1.15,2013-01-02 19:30:00,
2013-01-02 13:31:00,28.5,19.6,30.16,SSW,212,9.0,11.0,69,0.00,,,0.00,Wunderground v.1.15,2013-01-02 19:31:00,
2013-01-02 13:33:00,28.6,19.7,30.16,SSW,212,9.0,11.0,69,0.00,,,0.00,Wunderground v.1.15,2013-01-02 19:33:00,
2013-01-02 13:34:00,28.7,19.8,30.16,South,191,9.0,11.0,69,0.00,,,0.00,Wunderground v.1.15,2013-01-02 19:34:00,
2013-01-02 13:36:00,28.8,19.9,30.16,SW,229,9.0,11.0,69,0.00,,,0.00,Wunderground v.1.15,2013-01-02 19:36:00,
2013-01-02 13:38:00,28.8,19.6,30.16,SW,215,9.0,11.0,68,0.00,,,0.00,Wunderground v.1.15,2013-01-02 19:38:00,
2013-01-02 13:39:00,28.8,19.6,30.16,SSW,210,9.0,11.0,68,0.00,,,0.00,Wunderground v.1.15,2013-01-02 19:39:00,
2013-01-02 13:42:00,28.8,19.6,30.15,South,172,9.0,11.0,68,0.00,,,0.00,Wunderground v.1.15,2013-01-02 19:42:00,
2013-01-02 13:44:00,28.9,20.0,30.15,South,191,10.0,11.0,69,0.00,,,0.00,Wunderground v.1.15,2013-01-02 19:44:00,
2013-01-02 13:49:00,29.1,20.2,30.15,SSW,200,9.0,12.0,69,0.00,,,0.00,Wunderground v.1.15,2013-01-02 19:49:00,
2013-01-02 13:50:00,29.1,19.8,30.15,SSW,203,9.0,9.0,68,0.00,,,0.00,Wunderground v.1.15,2013-01-02 19:50:00,
2013-01-02 13:51:00,29.1,19.8,30.15,South,188,9.0,10.0,68,0.00,,,0.00,Wunderground v.1.15,2013-01-02 19:51:00,
2013-01-02 13:53:00,29.2,20.3,30.15,SSW,203,9.0,10.0,69,0.00,,,0.00,Wunderground v.1.15,2013-01-02 19:53:00,
2013-01-02 13:56:00,29.3,20.4,30.15,South,172,9.0,10.0,69,0.00,,,0.00,Wunderground v.1.15,2013-01-02 19:56:00,
2013-01-02 13:57:00,29.3,20.0,30.15,SSW,203,9.0,10.0,68,0.00,,,0.00,Wunderground v.1.15,2013-01-02 19:57:00,
2013-01-02 13:59:00,29.4,20.5,30.15,SSW,198,8.0,10.0,69,0.00,,,0.00,Wunderground v.1.15,2013-01-02 19:59:00,
2013-01-02 14:02:00,29.6,20.7,30.15,SW,226,8.0,10.0,69,0.00,,,0.00,Wunderground v.1.15,2013-01-02 20:02:00,
2013-01-02 14:03:00,29.7,20.8,30.15,SSW,195,8.0,10.0,69,0.00,,,0.00,Wunderground v.1.15,2013-01-02 20:03:00,
2013-01-02 14:04:00,29.6,20.3,30.15,SE,146,8.0,10.0,68,0.00,,,0.00,Wunderground v.1.15,2013-01-02 20:04:00,
2013-01-02 14:05:00,29.6,20.3,30.15,SSW,193,8.0,10.0,68,0.00,,,0.00,Wunderground v.1.15,2013-01-02 20:05:00,
2013-01-02 14:08:00,29.7,20.4,30.15,South,188,8.0,10.0,68,0.00,,,0.00,Wunderground v.1.15,2013-01-02 20:08:00,
2013-01-02 14:09:00,29.8,20.5,30.15,SW,219,7.0,10.0,68,0.00,,,0.00,Wunderground v.1.15,2013-01-02 20:09:00,
2013-01-02 14:13:00,29.9,20.6,30.15,SSW,197,8.0,13.0,68,0.00,,,0.00,Wunderground v.1.15,2013-01-02 20:13:00,
2013-01-02 14:14:00,29.9,20.6,30.15,South,183,8.0,13.0,68,0.00,,,0.00,Wunderground v.1.15,2013-01-02 20:14:00,
2013-01-02 14:15:00,30.0,20.7,30.15,SSW,205,8.0,13.0,68,0.00,,,0.00,Wunderground v.1.15,2013-01-02 20:15:00,
2013-01-02 14:16:00,30.0,20.7,30.15,SW,222,8.0,13.0,68,0.00,,,0.00,Wunderground v.1.15,2013-01-02 20:16:00,
2013-01-02 14:20:00,30.2,21.2,30.15,SSW,193,8.0,8.0,69,0.00,,,0.00,Wunderground v.1.15,2013-01-02 20:20:00,
2013-01-02 14:21:00,30.2,20.9,30.15,SSE,155,8.0,8.0,68,0.00,,,0.00,Wunderground v.1.15,2013-01-02 20:21:00,
2013-01-02 14:26:00,30.1,20.8,30.15,South,181,7.0,9.0,68,0.00,,,0.00,Wunderground v.1.15,2013-01-02 20:26:00,
2013-01-02 14:27:00,30.2,20.9,30.15,South,191,6.0,9.0,68,0.00,,,0.00,Wunderground v.1.15,2013-01-02 20:27:00,
2013-01-02 14:28:00,30.2,21.2,30.16,South,188,6.0,9.0,69,0.00,,,0.00,Wunderground v.1.15,2013-01-02 20:28:00,
2013-01-02 14:29:00,30.4,21.4,30.16,SW,224,6.0,11.0,69,0.00,,,0.00,Wunderground v.1.15,2013-01-02 20:29:00,
2013-01-02 14:33:00,30.4,21.1,30.16,SSW,196,7.0,10.0,68,0.00,,,0.00,Wunderground v.1.15,2013-01-02 20:33:00,
2013-01-02 14:35:00,30.3,20.6,30.16,SSW,205,7.0,10.0,67,0.00,,,0.00,Wunderground v.1.15,2013-01-02 20:35:00,
2013-01-02 14:37:00,30.3,21.0,30.16,SW,216,8.0,10.0,68,0.00,,,0.00,Wunderground v.1.15,2013-01-02 20:37:00,
2013-01-02 14:40:00,30.3,21.0,30.16,SSW,212,8.0,8.0,68,0.00,,,0.00,Wunderground v.1.15,2013-01-02 20:40:00,
2013-01-02 14:41:00,30.3,21.3,30.16,South,181,8.0,8.0,69,0.00,,,0.00,Wunderground v.1.15,2013-01-02 20:41:00,
2013-01-02 14:43:00,30.3,21.0,30.16,SW,219,8.0,9.0,68,0.00,,,0.00,Wunderground v.1.15,2013-01-02 20:43:00,
2013-01-02 14:47:00,30.3,20.6,30.16,South,180,9.0,10.0,67,0.00,,,0.00,Wunderground v.1.15,2013-01-02 20:47:00,
2013-01-02 14:48:00,30.3,21.0,30.16,SSW,208,8.0,10.0,68,0.00,,,0.00,Wunderground v.1.15,2013-01-02 20:48:00,
2013-01-02 14:50:00,30.4,21.1,30.16,SSW,193,8.0,9.0,68,0.00,,,0.00,Wunderground v.1.15,2013-01-02 20:50:00,
2013-01-02 14:51:00,30.5,20.8,30.16,SSW,205,8.0,10.0,67,0.00,,,0.00,Wunderground v.1.15,2013-01-02 20:51:00,
2013-01-02 14:53:00,30.5,20.8,30.15,South,191,8.0,10.0,67,0.00,,,0.00,Wunderground v.1.15,2013-01-02 20:53:00,
2013-01-02 14:56:00,30.5,20.8,30.15,South,190,8.0,10.0,67,0.00,,,0.00,Wunderground v.1.15,2013-01-02 20:56:00,
2013-01-02 14:57:00,30.5,20.8,30.15,South,191,8.0,10.0,67,0.00,,,0.00,Wunderground v.1.15,2013-01-02 20:57:00,
2013-01-02 14:59:00,30.5,20.8,30.15,South,174,8.0,10.0,67,0.00,,,0.00,Wunderground v.1.15,2013-01-02 20:59:00,
2013-01-02 15:02:00,30.6,20.9,30.16,SSW,196,8.0,10.0,67,0.00,,,0.00,Wunderground v.1.15,2013-01-02 21:02:00,
2013-01-02 15:04:00,30.5,20.8,30.16,SSW,201,8.0,10.0,67,0.00,,,0.00,Wunderground v.1.15,2013-01-02 21:04:00,
2013-01-02 15:07:00,30.5,21.2,30.16,South,187,8.0,10.0,68,0.00,,,0.00,Wunderground v.1.15,2013-01-02 21:07:00,
2013-01-02 15:08:00,30.6,21.3,30.16,South,169,8.0,10.0,68,0.00,,,0.00,Wunderground v.1.15,2013-01-02 21:08:00,
2013-01-02 15:09:00,30.5,21.2,30.16,SSW,207,8.0,10.0,68,0.00,,,0.00,Wunderground v.1.15,2013-01-02 21:09:00,
2013-01-02 15:10:00,30.5,20.8,30.16,SW,215,8.0,9.0,67,0.00,,,0.00,Wunderground v.1.15,2013-01-02 21:10:00,
2013-01-02 15:14:00,30.3,20.6,30.16,South,172,8.0,10.0,67,0.00,,,0.00,Wunderground v.1.15,2013-01-02 21:14:00,
2013-01-02 15:15:00,30.3,20.6,30.16,SSW,205,8.0,11.0,67,0.00,,,0.00,Wunderground v.1.15,2013-01-02 21:15:00,
2013-01-02 15:18:00,30.3,21.0,30.16,SSE,151,8.0,11.0,68,0.00,,,0.00,Wunderground v.1.15,2013-01-02 21:18:00,
2013-01-02 15:19:00,30.2,20.9,30.16,South,174,8.0,11.0,68,0.00,,,0.00,Wunderground v.1.15,2013-01-02 21:19:00,
2013-01-02 15:20:00,30.2,20.9,30.16,South,176,8.0,8.0,68,0.00,,,0.00,Wunderground v.1.15,2013-01-02 21:20:00,
2013-01-02 15:21:00,30.1,20.8,30.16,SSE,148,8.0,8.0,68,0.00,,,0.00,Wunderground v.1.15,2013-01-02 21:21:00,
2013-01-02 15:24:00,30.0,20.7,30.16,SSE,167,7.0,8.0,68,0.00,,,0.00,Wunderground v.1.15,2013-01-02 21:24:00,
2013-01-02 15:25:00,29.9,20.6,30.16,SSE,152,7.0,8.0,68,0.00,,,0.00,Wunderground v.1.15,2013-01-02 21:25:00,
2013-01-02 15:26:00,29.8,20.5,30.16,SSE,165,7.0,8.0,68,0.00,,,0.00,Wunderground v.1.15,2013-01-02 21:26:00,
2013-01-02 15:31:00,29.3,20.0,30.16,SSE,148,7.0,11.0,68,0.00,,,0.00,Wunderground v.1.15,2013-01-02 21:31:00,
2013-01-02 15:32:00,29.2,19.9,30.16,SE,132,8.0,11.0,68,0.00,,,0.00,Wunderground v.1.15,2013-01-02 21:32:00,
2013-01-02 15:33:00,29.0,19.8,30.16,SSE,150,8.0,11.0,68,0.00,,,0.00,Wunderground v.1.15,2013-01-02 21:33:00,
2013-01-02 15:37:00,28.8,19.9,30.16,South,169,8.0,11.0,69,0.00,,,0.00,Wunderground v.1.15,2013-01-02 21:37:00,
2013-01-02 15:38:00,28.7,19.8,30.16,SSE,165,8.0,11.0,69,0.00,,,0.00,Wunderground v.1.15,2013-01-02 21:38:00,
2013-01-02 15:41:00,28.5,19.6,30.16,South,172,8.0,8.0,69,0.00,,,0.00,Wunderground v.1.15,2013-01-02 21:41:00,
2013-01-02 15:43:00,28.4,19.5,30.16,SSE,158,8.0,8.0,69,0.00,,,0.00,Wunderground v.1.15,2013-01-02 21:43:00,
2013-01-02 15:45:00,28.3,19.8,30.16,SSE,150,7.0,8.0,70,0.00,,,0.00,Wunderground v.1.15,2013-01-02 21:45:00,
2013-01-02 15:46:00,28.2,19.3,30.16,SSE,161,7.0,8.0,69,0.00,,,0.00,Wunderground v.1.15,2013-01-02 21:46:00,
2013-01-02 15:47:00,28.2,19.3,30.16,SSE,165,7.0,8.0,69,0.00,,,0.00,Wunderground v.1.15,2013-01-02 21:47:00,
2013-01-02 15:50:00,28.1,19.6,30.16,SE,145,7.0,9.0,70,0.00,,,0.00,Wunderground v.1.15,2013-01-02 21:50:00,
2013-01-02 15:51:00,28.0,19.5,30.16,South,181,7.0,9.0,70,0.00,,,0.00,Wunderground v.1.15,2013-01-02 21:51:00,
2013-01-02 15:53:00,28.0,19.5,30.16,SSE,165,7.0,9.0,70,0.00,,,0.00,Wunderground v.1.15,2013-01-02 21:53:00,
2013-01-02 15:56:00,28.0,19.8,30.16,South,180,6.0,9.0,71,0.00,,,0.00,Wunderground v.1.15,2013-01-02 21:56:00,
2013-01-02 15:58:00,27.9,19.7,30.16,SSE,152,6.0,9.0,71,0.00,,,0.00,Wunderground v.1.15,2013-01-02 21:58:00,
2013-01-02 16:01:00,27.7,19.2,30.16,South,180,6.0,7.0,70,0.00,,,0.00,Wunderground v.1.15,2013-01-02 22:01:00,
2013-01-02 16:02:00,27.6,19.1,30.16,South,175,6.0,8.0,70,0.00,,,0.00,Wunderground v.1.15,2013-01-02 22:02:00,
2013-01-02 16:03:00,27.6,19.4,30.16,SSE,154,6.0,8.0,71,0.00,,,0.00,Wunderground v.1.15,2013-01-02 22:03:00,
2013-01-02 16:06:00,27.5,19.0,30.16,SSE,162,7.0,9.0,70,0.00,,,0.00,Wunderground v.1.15,2013-01-02 22:06:00,
2013-01-02 16:07:00,27.4,19.2,30.16,South,172,7.0,9.0,71,0.00,,,0.00,Wunderground v.1.15,2013-01-02 22:07:00,
2013-01-02 16:12:00,27.2,19.0,30.16,South,170,7.0,8.0,71,0.00,,,0.00,Wunderground v.1.15,2013-01-02 22:12:00,
2013-01-02 16:14:00,27.2,19.0,30.16,SSW,193,7.0,8.0,71,0.00,,,0.00,Wunderground v.1.15,2013-01-02 22:14:00,
2013-01-02 16:15:00,27.1,18.9,30.16,South,177,6.0,8.0,71,0.00,,,0.00,Wunderground v.1.15,2013-01-02 22:15:00,
2013-01-02 16:16:00,27.0,18.8,30.16,South,181,6.0,8.0,71,0.00,,,0.00,Wunderground v.1.15,2013-01-02 22:16:00,
2013-01-02 16:19:00,26.9,18.7,30.16,South,176,6.0,8.0,71,0.00,,,0.00,Wunderground v.1.15,2013-01-02 22:19:00,
2013-01-02 16:20:00,26.9,19.1,30.16,South,180,6.0,8.0,72,0.00,,,0.00,Wunderground v.1.15,2013-01-02 22:20:00,
2013-01-02 16:21:00,26.9,19.1,30.16,SSE,160,6.0,8.0,72,0.00,,,0.00,Wunderground v.1.15,2013-01-02 22:21:00,
2013-01-02 16:24:00,26.7,18.9,30.16,South,175,7.0,8.0,72,0.00,,,0.00,Wunderground v.1.15,2013-01-02 22:24:00,
2013-01-02 16:25:00,26.7,18.9,30.16,South,184,7.0,9.0,72,0.00,,,0.00,Wunderground v.1.15,2013-01-02 22:25:00,
2013-01-02 16:26:00,26.7,18.9,30.16,SSE,160,7.0,9.0,72,0.00,,,0.00,Wunderground v.1.15,2013-01-02 22:26:00,
2013-01-02 16:30:00,26.5,18.7,30.16,South,179,7.0,10.0,72,0.00,,,0.00,Wunderground v.1.15,2013-01-02 22:30:00,
2013-01-02 16:32:00,26.3,18.5,30.16,SSE,165,7.0,10.0,72,0.00,,,0.00,Wunderground v.1.15,2013-01-02 22:32:00,
2013-01-02 16:36:00,26.2,18.7,30.16,SE,128,7.0,10.0,73,0.00,,,0.00,Wunderground v.1.15,2013-01-02 22:36:00,
2013-01-02 16:37:00,26.0,18.5,30.16,South,172,7.0,10.0,73,0.00,,,0.00,Wunderground v.1.15,2013-01-02 22:37:00,
2013-01-02 16:38:00,25.9,18.4,30.16,South,174,7.0,10.0,73,0.00,,,0.00,Wunderground v.1.15,2013-01-02 22:38:00,
2013-01-02 16:41:00,25.8,18.3,30.16,South,187,6.0,7.0,73,0.00,,,0.00,Wunderground v.1.15,2013-01-02 22:41:00,
2013-01-02 16:43:00,25.7,18.2,30.17,South,179,6.0,7.0,73,0.00,,,0.00,Wunderground v.1.15,2013-01-02 22:43:00,
2013-01-02 16:45:00,25.4,18.3,30.16,South,183,5.0,7.0,74,0.00,,,0.00,Wunderground v.1.15,2013-01-02 22:45:00,
2013-01-02 16:46:00,25.3,18.2,30.16,SSE,155,5.0,7.0,74,0.00,,,0.00,Wunderground v.1.15,2013-01-02 22:46:00,
2013-01-02 16:51:00,25.0,17.9,30.16,SSE,152,5.0,5.0,74,0.00,,,0.00,Wunderground v.1.15,2013-01-02 22:51:00,
2013-01-02 16:53:00,24.9,17.8,30.16,South,169,5.0,6.0,74,0.00,,,0.00,Wunderground v.1.15,2013-01-02 22:53:00,
2013-01-02 16:54:00,24.9,17.8,30.16,SE,133,5.0,6.0,74,0.00,,,0.00,Wunderground v.1.15,2013-01-02 22:54:00,
2013-01-02 16:56:00,24.7,17.6,30.16,SSE,155,5.0,6.0,74,0.00,,,0.00,Wunderground v.1.15,2013-01-02 22:56:00,
2013-01-02 16:58:00,24.7,17.6,30.16,SSE,158,5.0,6.0,74,0.00,,,0.00,Wunderground v.1.15,2013-01-02 22:58:00,
2013-01-02 17:00:00,24.6,17.5,30.16,South,177,5.0,5.0,74,0.00,,,0.00,Wunderground v.1.15,2013-01-02 23:00:00,
2013-01-02 17:03:00,24.5,17.4,30.16,SSE,156,5.0,6.0,74,0.00,,,0.00,Wunderground v.1.15,2013-01-02 23:03:00,
2013-01-02 17:08:00,24.3,17.5,30.16,SSE,164,5.0,8.0,75,0.00,,,0.00,Wunderground v.1.15,2013-01-02 23:08:00,
2013-01-02 17:09:00,24.3,17.5,30.16,SSE,166,5.0,5.0,75,0.00,,,0.00,Wunderground v.1.15,2013-01-02 23:09:00,
2013-01-02 17:10:00,24.2,17.4,30.16,South,183,5.0,7.0,75,0.00,,,0.00,Wunderground v.1.15,2013-01-02 23:10:00,
2013-01-02 17:13:00,24.2,17.4,30.16,SE,134,5.0,7.0,75,0.00,,,0.00,Wunderground v.1.15,2013-01-02 23:13:00,
2013-01-02 17:17:00,24.0,17.2,30.16,SSE,157,5.0,7.0,75,0.00,,,0.00,Wunderground v.1.15,2013-01-02 23:17:00,
2013-01-02 17:18:00,23.9,17.1,30.16,South,176,6.0,7.0,75,0.00,,,0.00,Wunderground v.1.15,2013-01-02 23:18:00,
2013-01-02 17:19:00,23.9,17.1,30.16,South,170,5.0,8.0,75,0.00,,,0.00,Wunderground v.1.15,2013-01-02 23:19:00,
2013-01-02 17:22:00,23.8,17.0,30.16,SSE,150,6.0,8.0,75,0.00,,,0.00,Wunderground v.1.15,2013-01-02 23:22:00,
2013-01-02 17:25:00,23.6,16.8,30.16,SE,141,6.0,8.0,75,0.00,,,0.00,Wunderground v.1.15,2013-01-02 23:25:00,
2013-01-02 17:27:00,23.6,16.8,30.16,SE,144,6.0,8.0,75,0.00,,,0.00,Wunderground v.1.15,2013-01-02 23:27:00,
2013-01-02 17:28:00,23.5,17.0,30.16,SSE,166,6.0,8.0,76,0.00,,,0.00,Wunderground v.1.15,2013-01-02 23:28:00,
2013-01-02 17:30:00,23.4,16.9,30.16,South,173,6.0,6.0,76,0.00,,,0.00,Wunderground v.1.15,2013-01-02 23:30:00,
2013-01-02 17:32:00,23.4,16.9,30.16,SSE,159,6.0,8.0,76,0.00,,,0.00,Wunderground v.1.15,2013-01-02 23:32:00,
2013-01-02 17:36:00,23.2,16.8,30.16,SSE,166,6.0,8.0,76,0.00,,,0.00,Wunderground v.1.15,2013-01-02 23:36:00,
2013-01-02 17:39:00,23.2,16.8,30.17,SSE,166,6.0,8.0,76,0.00,,,0.00,Wunderground v.1.15,2013-01-02 23:39:00,
2013-01-02 17:40:00,23.1,16.7,30.17,South,191,6.0,7.0,76,0.00,,,0.00,Wunderground v.1.15,2013-01-02 23:40:00,
2013-01-02 17:41:00,23.1,16.7,30.17,South,179,6.0,8.0,76,0.00,,,0.00,Wunderground v.1.15,2013-01-02 23:41:00,
2013-01-02 17:44:00,23.1,16.7,30.17,South,181,6.0,8.0,76,0.00,,,0.00,Wunderground v.1.15,2013-01-02 23:44:00,
2013-01-02 17:46:00,23.0,16.6,30.17,SSE,165,6.0,8.0,76,0.00,,,0.00,Wunderground v.1.15,2013-01-02 23:46:00,
2013-01-02 17:48:00,22.9,16.5,30.17,SSE,162,6.0,8.0,76,0.00,,,0.00,Wunderground v.1.15,2013-01-02 23:48:00,
2013-01-02 17:49:00,22.9,16.5,30.17,South,169,6.0,8.0,76,0.00,,,0.00,Wunderground v.1.15,2013-01-02 23:49:00,
2013-01-02 17:52:00,22.8,16.4,30.17,South,180,5.0,8.0,76,0.00,,,0.00,Wunderground v.1.15,2013-01-02 23:52:00,
2013-01-02 17:53:00,22.9,16.5,30.17,SSE,158,5.0,8.0,76,0.00,,,0.00,Wunderground v.1.15,2013-01-02 23:53:00,
2013-01-02 17:55:00,22.8,16.4,30.17,South,187,5.0,8.0,76,0.00,,,0.00,Wunderground v.1.15,2013-01-02 23:55:00,
2013-01-02 17:57:00,22.8,16.4,30.17,SSE,150,5.0,8.0,76,0.00,,,0.00,Wunderground v.1.15,2013-01-02 23:57:00,
2013-01-02 17:59:00,22.7,16.3,30.17,SSE,155,5.0,8.0,76,0.00,,,0.00,Wunderground v.1.15,2013-01-02 23:59:00,
2013-01-02 18:01:00,22.6,16.2,30.17,SSE,162,4.0,4.0,76,0.00,,,0.00,Wunderground v.1.15,2013-01-03 00:01:00,
2013-01-02 18:02:00,22.6,16.2,30.17,South,172,4.0,4.0,76,0.00,,,0.00,Wunderground v.1.15,2013-01-03 00:02:00,
2013-01-02 18:05:00,22.5,16.4,30.17,South,174,4.0,5.0,77,0.00,,,0.00,Wunderground v.1.15,2013-01-03 00:05:00,
2013-01-02 18:08:00,22.5,16.4,30.17,South,181,4.0,7.0,77,0.00,,,0.00,Wunderground v.1.15,2013-01-03 00:08:00,
2013-01-02 18:10:00,22.5,16.4,30.17,South,176,4.0,4.0,77,0.00,,,0.00,Wunderground v.1.15,2013-01-03 00:10:00,
2013-01-02 18:11:00,22.5,16.4,30.17,SSW,194,4.0,4.0,77,0.00,,,0.00,Wunderground v.1.15,2013-01-03 00:11:00,
2013-01-02 18:14:00,22.4,16.3,30.17,South,181,4.0,4.0,77,0.00,,,0.00,Wunderground v.1.15,2013-01-03 00:14:00,
2013-01-02 18:15:00,22.4,16.3,30.17,SSW,198,4.0,5.0,77,0.00,,,0.00,Wunderground v.1.15,2013-01-03 00:15:00,
2013-01-02 18:17:00,22.4,16.3,30.17,South,181,4.0,6.0,77,0.00,,,0.00,Wunderground v.1.15,2013-01-03 00:17:00,
2013-01-02 18:18:00,22.4,16.3,30.17,South,170,4.0,6.0,77,0.00,,,0.00,Wunderground v.1.15,2013-01-03 00:18:00,
2013-01-02 18:19:00,22.4,16.3,30.17,SSW,195,4.0,6.0,77,0.00,,,0.00,Wunderground v.1.15,2013-01-03 00:19:00,
2013-01-02 18:21:00,22.4,16.3,30.17,South,177,5.0,5.0,77,0.00,,,0.00,Wunderground v.1.15,2013-01-03 00:21:00,
2013-01-02 18:22:00,22.4,16.3,30.17,South,189,5.0,6.0,77,0.00,,,0.00,Wunderground v.1.15,2013-01-03 00:22:00,
2013-01-02 18:23:00,22.4,16.3,30.17,SSE,156,5.0,6.0,77,0.00,,,0.00,Wunderground v.1.15,2013-01-03 00:23:00,
2013-01-02 18:24:00,22.4,16.3,30.17,SSE,160,5.0,6.0,77,0.00,,,0.00,Wunderground v.1.15,2013-01-03 00:24:00,
2013-01-02 18:26:00,22.4,16.3,30.17,South,172,5.0,6.0,77,0.00,,,0.00,Wunderground v.1.15,2013-01-03 00:26:00,
2013-01-02 18:27:00,22.3,16.2,30.17,South,180,5.0,6.0,77,0.00,,,0.00,Wunderground v.1.15,2013-01-03 00:27:00,
2013-01-02 18:28:00,22.3,16.2,30.17,SSE,152,5.0,6.0,77,0.00,,,0.00,Wunderground v.1.15,2013-01-03 00:28:00,
2013-01-02 18:32:00,22.3,16.2,30.17,South,189,5.0,8.0,77,0.00,,,0.00,Wunderground v.1.15,2013-01-03 00:32:00,
2013-01-02 18:34:00,22.3,16.2,30.18,SSW,197,5.0,8.0,77,0.00,,,0.00,Wunderground v.1.15,2013-01-03 00:34:00,
2013-01-02 18:36:00,22.3,16.2,30.18,South,181,5.0,8.0,77,0.00,,,0.00,Wunderground v.1.15,2013-01-03 00:36:00,
2013-01-02 18:40:00,22.3,16.2,30.17,South,176,5.0,5.0,77,0.00,,,0.00,Wunderground v.1.15,2013-01-03 00:40:00,
2013-01-02 18:42:00,22.3,16.2,30.17,South,173,5.0,6.0,77,0.00,,,0.00,Wunderground v.1.15,2013-01-03 00:42:00,
2013-01-02 18:45:00,22.3,16.2,30.17,South,170,5.0,6.0,77,0.00,,,0.00,Wunderground v.1.15,2013-01-03 00:45:00,
2013-01-02 18:47:00,22.2,16.1,30.18,South,181,5.0,7.0,77,0.00,,,0.00,Wunderground v.1.15,2013-01-03 00:47:00,
2013-01-02 18:48:00,22.2,16.1,30.18,South,188,5.0,7.0,77,0.00,,,0.00,Wunderground v.1.15,2013-01-03 00:48:00,
2013-01-02 18:49:00,22.2,16.1,30.18,South,174,5.0,7.0,77,0.00,,,0.00,Wunderground v.1.15,2013-01-03 00:49:00,
2013-01-02 18:51:00,22.2,16.1,30.18,SSW,204,5.0,7.0,77,0.00,,,0.00,Wunderground v.1.15,2013-01-03 00:51:00,
2013-01-02 18:53:00,22.1,16.0,30.18,South,190,5.0,7.0,77,0.00,,,0.00,Wunderground v.1.15,2013-01-03 00:53:00,
2013-01-02 18:54:00,22.1,16.0,30.18,South,191,5.0,7.0,77,0.00,,,0.00,Wunderground v.1.15,2013-01-03 00:54:00,
2013-01-02 18:56:00,22.1,16.0,30.18,South,185,5.0,7.0,77,0.00,,,0.00,Wunderground v.1.15,2013-01-03 00:56:00,
2013-01-02 18:58:00,22.1,16.0,30.18,SSE,155,5.0,7.0,77,0.00,,,0.00,Wunderground v.1.15,2013-01-03 00:58:00,
2013-01-02 18:59:00,22.1,16.0,30.18,SSW,210,5.0,7.0,77,0.00,,,0.00,Wunderground v.1.15,2013-01-03 00:59:00,
2013-01-02 19:02:00,22.1,16.0,30.18,SSW,194,5.0,6.0,77,0.00,,,0.00,Wunderground v.1.15,2013-01-03 01:02:00,
2013-01-02 19:04:00,22.1,16.0,30.18,SSW,205,5.0,7.0,77,0.00,,,0.00,Wunderground v.1.15,2013-01-03 01:04:00,
2013-01-02 19:05:00,22.1,16.0,30.18,South,188,5.0,7.0,77,0.00,,,0.00,Wunderground v.1.15,2013-01-03 01:05:00,
2013-01-02 19:06:00,22.1,16.0,30.18,South,176,5.0,7.0,77,0.00,,,0.00,Wunderground v.1.15,2013-01-03 01:06:00,
2013-01-02 19:07:00,22.1,15.7,30.18,SSW,197,5.0,7.0,76,0.00,,,0.00,Wunderground v.1.15,2013-01-03 01:07:00,
2013-01-02 19:09:00,22.1,15.7,30.18,South,186,5.0,7.0,76,0.00,,,0.00,Wunderground v.1.15,2013-01-03 01:09:00,
2013-01-02 19:11:00,22.0,15.9,30.18,SSW,201,5.0,5.0,77,0.00,,,0.00,Wunderground v.1.15,2013-01-03 01:11:00,
2013-01-02 19:12:00,22.0,15.9,30.18,South,191,5.0,5.0,77,0.00,,,0.00,Wunderground v.1.15,2013-01-03 01:12:00,
2013-01-02 19:14:00,22.0,15.9,30.19,SSW,208,4.0,5.0,77,0.00,,,0.00,Wunderground v.1.15,2013-01-03 01:14:00,
2013-01-02 19:16:00,22.0,15.9,30.19,SSW,204,4.0,6.0,77,0.00,,,0.00,Wunderground v.1.15,2013-01-03 01:16:00,
2013-01-02 19:17:00,22.0,15.9,30.19,SSW,203,4.0,6.0,77,0.00,,,0.00,Wunderground v.1.15,2013-01-03 01:17:00,
2013-01-02 19:20:00,21.9,15.8,30.19,South,190,4.0,5.0,77,0.00,,,0.00,Wunderground v.1.15,2013-01-03 01:20:00,
2013-01-02 19:22:00,21.9,15.8,30.18,SSW,197,5.0,7.0,77,0.00,,,0.00,Wunderground v.1.15,2013-01-03 01:22:00,
2013-01-02 19:23:00,21.9,15.8,30.18,SSW,211,5.0,7.0,77,0.00,,,0.00,Wunderground v.1.15,2013-01-03 01:23:00,
2013-01-02 19:25:00,21.8,15.7,30.18,SSW,198,5.0,7.0,77,0.00,,,0.00,Wunderground v.1.15,2013-01-03 01:25:00,
2013-01-02 19:28:00,21.8,15.7,30.18,South,186,5.0,7.0,77,0.00,,,0.00,Wunderground v.1.15,2013-01-03 01:28:00,
2013-01-02 19:29:00,21.7,15.6,30.18,South,186,5.0,7.0,77,0.00,,,0.00,Wunderground v.1.15,2013-01-03 01:29:00,
2013-01-02 19:30:00,21.7,15.6,30.18,SSW,192,4.0,6.0,77,0.00,,,0.00,Wunderground v.1.15,2013-01-03 01:30:00,
2013-01-02 19:32:00,21.7,15.6,30.18,SSW,194,4.0,6.0,77,0.00,,,0.00,Wunderground v.1.15,2013-01-03 01:32:00,
2013-01-02 19:35:00,21.6,15.5,30.18,SSW,198,4.0,6.0,77,0.00,,,0.00,Wunderground v.1.15,2013-01-03 01:35:00,
2013-01-02 19:36:00,21.6,15.5,30.18,SSW,208,3.0,6.0,77,0.00,,,0.00,Wunderground v.1.15,2013-01-03 01:36:00,
2013-01-02 19:38:00,21.5,15.4,30.18,SSE,162,3.0,6.0,77,0.00,,,0.00,Wunderground v.1.15,2013-01-03 01:38:00,
2013-01-02 19:41:00,21.5,15.4,30.18,South,173,3.0,3.0,77,0.00,,,0.00,Wunderground v.1.15,2013-01-03 01:41:00,
2013-01-02 19:44:00,21.4,15.3,30.18,South,191,2.0,4.0,77,0.00,,,0.00,Wunderground v.1.15,2013-01-03 01:44:00,
2013-01-02 19:45:00,21.4,15.3,30.18,SW,215,2.0,4.0,77,0.00,,,0.00,Wunderground v.1.15,2013-01-03 01:45:00,
2013-01-02 19:47:00,21.4,15.6,30.18,SSW,208,2.0,5.0,78,0.00,,,0.00,Wunderground v.1.15,2013-01-03 01:47:00,
2013-01-02 19:50:00,21.3,15.5,30.18,SSW,198,2.0,3.0,78,0.00,,,0.00,Wunderground v.1.15,2013-01-03 01:50:00,
2013-01-02 19:51:00,21.3,15.5,30.18,South,177,2.0,3.0,78,0.00,,,0.00,Wunderground v.1.15,2013-01-03 01:51:00,
2013-01-02 19:52:00,21.3,15.5,30.18,South,186,3.0,3.0,78,0.00,,,0.00,Wunderground v.1.15,2013-01-03 01:52:00,
2013-01-02 19:53:00,21.3,15.5,30.18,South,179,3.0,3.0,78,0.00,,,0.00,Wunderground v.1.15,2013-01-03 01:53:00,
2013-01-02 19:56:00,21.3,15.5,30.18,SW,215,3.0,3.0,78,0.00,,,0.00,Wunderground v.1.15,2013-01-03 01:56:00,
2013-01-02 19:58:00,21.4,15.6,30.18,South,186,3.0,3.0,78,0.00,,,0.00,Wunderground v.1.15,2013-01-03 01:58:00,
2013-01-02 20:00:00,21.5,16.0,30.18,SSE,166,3.0,3.0,79,0.00,,,0.00,Wunderground v.1.15,2013-01-03 02:00:00,
2013-01-02 20:01:00,21.5,16.0,30.18,SSW,212,3.0,3.0,79,0.00,,,0.00,Wunderground v.1.15,2013-01-03 02:01:00,
2013-01-02 20:04:00,21.7,15.9,30.18,SSW,201,3.0,6.0,78,0.00,,,0.00,Wunderground v.1.15,2013-01-03 02:04:00,
2013-01-02 20:08:00,21.8,16.0,30.17,SSW,192,3.0,6.0,78,0.00,,,0.00,Wunderground v.1.15,2013-01-03 02:08:00,
2013-01-02 20:09:00,21.9,16.1,30.18,South,170,3.0,6.0,78,0.00,,,0.00,Wunderground v.1.15,2013-01-03 02:09:00,
2013-01-02 20:11:00,22.0,16.2,30.18,South,185,4.0,5.0,78,0.00,,,0.00,Wunderground v.1.15,2013-01-03 02:11:00,
2013-01-02 20:13:00,22.1,16.3,30.18,SSW,195,4.0,5.0,78,0.00,,,0.00,Wunderground v.1.15,2013-01-03 02:13:00,
2013-01-02 20:14:00,22.2,16.4,30.17,South,176,4.0,5.0,78,0.00,,,0.00,Wunderground v.1.15,2013-01-03 02:14:00,
2013-01-02 20:16:00,22.3,16.5,30.18,SSW,194,4.0,6.0,78,0.00,,,0.00,Wunderground v.1.15,2013-01-03 02:16:00,
2013-01-02 20:19:00,22.4,16.6,30.17,South,173,4.0,8.0,78,0.00,,,0.00,Wunderground v.1.15,2013-01-03 02:19:00,
2013-01-02 20:21:00,22.5,16.4,30.17,South,185,5.0,5.0,77,0.00,,,0.00,Wunderground v.1.15,2013-01-03 02:21:00,
2013-01-02 20:23:00,22.6,16.5,30.18,South,186,5.0,6.0,77,0.00,,,0.00,Wunderground v.1.15,2013-01-03 02:23:00,
2013-01-02 20:25:00,22.7,16.6,30.17,SSW,197,5.0,6.0,77,0.00,,,0.00,Wunderground v.1.15,2013-01-03 02:25:00,
2013-01-02 20:26:00,22.7,16.6,30.17,SSE,167,5.0,6.0,77,0.00,,,0.00,Wunderground v.1.15,2013-01-03 02:26:00,
2013-01-02 20:28:00,22.8,16.7,30.17,SSW,196,5.0,6.0,77,0.00,,,0.00,Wunderground v.1.15,2013-01-03 02:28:00,
2013-01-02 20:33:00,22.9,16.8,30.17,SW,214,5.0,6.0,77,0.00,,,0.00,Wunderground v.1.15,2013-01-03 02:33:00,
2013-01-02 20:35:00,23.0,16.9,30.18,SSW,203,5.0,6.0,77,0.00,,,0.00,Wunderground v.1.15,2013-01-03 02:35:00,
2013-01-02 20:37:00,23.1,17.0,30.17,SSW,197,5.0,6.0,77,0.00,,,0.00,Wunderground v.1.15,2013-01-03 02:37:00,
2013-01-02 20:38:00,23.1,17.0,30.18,South,184,4.0,8.0,77,0.00,,,0.00,Wunderground v.1.15,2013-01-03 02:38:00,
2013-01-02 20:40:00,23.1,17.0,30.17,SSW,194,5.0,5.0,77,0.00,,,0.00,Wunderground v.1.15,2013-01-03 02:40:00,
2013-01-02 20:42:00,23.2,17.1,30.17,SSW,193,5.0,5.0,77,0.00,,,0.00,Wunderground v.1.15,2013-01-03 02:42:00,
2013-01-02 20:43:00,23.2,17.1,30.17,SW,219,5.0,6.0,77,0.00,,,0.00,Wunderground v.1.15,2013-01-03 02:43:00,
2013-01-02 20:45:00,23.3,16.9,30.17,SSW,204,5.0,7.0,76,0.00,,,0.00,Wunderground v.1.15,2013-01-03 02:45:00,
2013-01-02 20:48:00,23.3,17.2,30.17,SSW,205,5.0,7.0,77,0.00,,,0.00,Wunderground v.1.15,2013-01-03 02:48:00,
2013-01-02 20:52:00,23.4,17.3,30.18,South,184,5.0,5.0,77,0.00,,,0.00,Wunderground v.1.15,2013-01-03 02:52:00,
2013-01-02 20:53:00,23.4,17.3,30.18,SSW,201,5.0,7.0,77,0.00,,,0.00,Wunderground v.1.15,2013-01-03 02:53:00,
2013-01-02 20:54:00,23.4,17.3,30.18,SSW,210,5.0,7.0,77,0.00,,,0.00,Wunderground v.1.15,2013-01-03 02:54:00,
2013-01-02 20:56:00,23.5,17.3,30.18,SSW,197,5.0,7.0,77,0.00,,,0.00,Wunderground v.1.15,2013-01-03 02:56:00,
2013-01-02 20:57:00,23.5,17.3,30.18,SSW,208,5.0,7.0,77,0.00,,,0.00,Wunderground v.1.15,2013-01-03 02:57:00,
2013-01-02 21:00:00,23.5,17.3,30.18,South,186,5.0,5.0,77,0.00,,,0.00,Wunderground v.1.15,2013-01-03 03:00:00,
2013-01-02 21:03:00,23.6,17.4,30.18,SSW,205,5.0,6.0,77,0.00,,,0.00,Wunderground v.1.15,2013-01-03 03:03:00,
2013-01-02 21:04:00,23.6,17.4,30.18,SSW,212,5.0,6.0,77,0.00,,,0.00,Wunderground v.1.15,2013-01-03 03:04:00,
2013-01-02 21:06:00,23.7,17.2,30.18,SSW,198,5.0,6.0,76,0.00,,,0.00,Wunderground v.1.15,2013-01-03 03:06:00,
2013-01-02 21:08:00,23.8,17.3,30.18,SSW,203,5.0,6.0,76,0.00,,,0.00,Wunderground v.1.15,2013-01-03 03:08:00,
2013-01-02 21:09:00,23.8,17.6,30.18,South,191,5.0,6.0,77,0.00,,,0.00,Wunderground v.1.15,2013-01-03 03:09:00,
2013-01-02 21:11:00,23.8,17.6,30.18,SSW,195,5.0,8.0,77,0.00,,,0.00,Wunderground v.1.15,2013-01-03 03:11:00,
2013-01-02 21:12:00,23.9,17.7,30.18,SSW,208,5.0,8.0,77,0.00,,,0.00,Wunderground v.1.15,2013-01-03 03:12:00,
2013-01-02 21:14:00,23.9,17.4,30.18,SSW,197,5.0,8.0,76,0.00,,,0.00,Wunderground v.1.15,2013-01-03 03:14:00,
2013-01-02 21:15:00,24.0,17.5,30.18,South,191,5.0,8.0,76,0.00,,,0.00,Wunderground v.1.15,2013-01-03 03:15:00,
2013-01-02 21:17:00,24.0,17.8,30.18,South,191,5.0,8.0,77,0.00,,,0.00,Wunderground v.1.15,2013-01-03 03:17:00,
2013-01-02 21:20:00,24.1,17.9,30.18,SW,218,5.0,8.0,77,0.00,,,0.00,Wunderground v.1.15,2013-01-03 03:20:00,
2013-01-02 21:21:00,24.1,17.6,30.18,SSW,211,5.0,8.0,76,0.00,,,0.00,Wunderground v.1.15,2013-01-03 03:21:00,
2013-01-02 21:22:00,24.1,17.6,30.18,SSW,201,5.0,8.0,76,0.00,,,0.00,Wunderground v.1.15,2013-01-03 03:22:00,
2013-01-02 21:24:00,24.2,18.0,30.18,South,186,5.0,8.0,77,0.00,,,0.00,Wunderground v.1.15,2013-01-03 03:24:00,
2013-01-02 21:28:00,24.2,17.7,30.18,SSW,208,5.0,8.0,76,0.00,,,0.00,Wunderground v.1.15,2013-01-03 03:28:00,
2013-01-02 21:30:00,24.2,17.7,30.18,South,181,5.0,5.0,76,0.00,,,0.00,Wunderground v.1.15,2013-01-03 03:30:00,
2013-01-02 21:31:00,24.3,17.8,30.17,South,176,5.0,5.0,76,0.00,,,0.00,Wunderground v.1.15,2013-01-03 03:31:00,
2013-01-02 21:32:00,24.2,17.7,30.18,South,188,5.0,5.0,76,0.00,,,0.00,Wunderground v.1.15,2013-01-03 03:32:00,
2013-01-02 21:34:00,24.3,17.8,30.18,SSW,203,5.0,5.0,76,0.00,,,0.00,Wunderground v.1.15,2013-01-03 03:34:00,
2013-01-02 21:36:00,24.3,17.8,30.18,South,181,5.0,6.0,76,0.00,,,0.00,Wunderground v.1.15,2013-01-03 03:36:00,
2013-01-02 21:39:00,24.4,17.9,30.17,South,177,5.0,6.0,76,0.00,,,0.00,Wunderground v.1.15,2013-01-03 03:39:00,
2013-01-02 21:44:00,24.4,18.2,30.17,South,173,4.0,6.0,77,0.00,,,0.00,Wunderground v.1.15,2013-01-03 03:44:00,
2013-01-02 21:46:00,24.3,17.8,30.17,SSW,200,4.0,6.0,76,0.00,,,0.00,Wunderground v.1.15,2013-01-03 03:46:00,
2013-01-02 21:47:00,24.4,17.9,30.17,SSW,194,4.0,6.0,76,0.00,,,0.00,Wunderground v.1.15,2013-01-03 03:47:00,
2013-01-02 21:51:00,24.5,18.0,30.17,SW,218,4.0,5.0,76,0.00,,,0.00,Wunderground v.1.15,2013-01-03 03:51:00,
2013-01-02 21:52:00,24.5,18.3,30.18,South,187,4.0,5.0,77,0.00,,,0.00,Wunderground v.1.15,2013-01-03 03:52:00,
2013-01-02 21:54:00,24.5,18.3,30.18,SSW,210,4.0,6.0,77,0.00,,,0.00,Wunderground v.1.15,2013-01-03 03:54:00,
2013-01-02 21:57:00,24.6,18.4,30.18,South,181,5.0,6.0,77,0.00,,,0.00,Wunderground v.1.15,2013-01-03 03:57:00,
2013-01-02 21:58:00,24.6,18.4,30.18,South,176,4.0,6.0,77,0.00,,,0.00,Wunderground v.1.15,2013-01-03 03:58:00,
2013-01-02 22:02:00,24.7,18.5,30.18,South,191,5.0,5.0,77,0.00,,,0.00,Wunderground v.1.15,2013-01-03 04:02:00,
2013-01-02 22:04:00,24.8,18.6,30.18,SSW,203,5.0,5.0,77,0.00,,,0.00,Wunderground v.1.15,2013-01-03 04:04:00,
2013-01-02 22:05:00,24.7,18.2,30.18,SSW,205,5.0,5.0,76,0.00,,,0.00,Wunderground v.1.15,2013-01-03 04:05:00,
2013-01-02 22:07:00,24.7,18.2,30.18,SSW,210,5.0,6.0,76,0.00,,,0.00,Wunderground v.1.15,2013-01-03 04:07:00,
2013-01-02 22:10:00,24.7,18.5,30.18,South,183,4.0,4.0,77,0.00,,,0.00,Wunderground v.1.15,2013-01-03 04:10:00,
2013-01-02 22:11:00,24.7,18.5,30.18,SSW,210,4.0,5.0,77,0.00,,,0.00,Wunderground v.1.15,2013-01-03 04:11:00,
2013-01-02 22:16:00,24.7,18.5,30.18,SSW,193,4.0,5.0,77,0.00,,,0.00,Wunderground v.1.15,2013-01-03 04:16:00,
2013-01-02 22:17:00,24.7,18.5,30.18,South,188,4.0,5.0,77,0.00,,,0.00,Wunderground v.1.15,2013-01-03 04:17:00,
2013-01-02 22:18:00,24.7,18.5,30.18,SSW,210,4.0,5.0,77,0.00,,,0.00,Wunderground v.1.15,2013-01-03 04:18:00,
2013-01-02 22:20:00,24.7,18.5,30.18,SW,215,4.0,5.0,77,0.00,,,0.00,Wunderground v.1.15,2013-01-03 04:20:00,
2013-01-02 22:23:00,24.7,18.5,30.18,SSW,203,4.0,5.0,77,0.00,,,0.00,Wunderground v.1.15,2013-01-03 04:23:00,
2013-01-02 22:24:00,24.8,18.6,30.18,SSW,211,5.0,5.0,77,0.00,,,0.00,Wunderground v.1.15,2013-01-03 04:24:00,
2013-01-02 22:25:00,24.8,18.6,30.18,SSW,195,5.0,5.0,77,0.00,,,0.00,Wunderground v.1.15,2013-01-03 04:25:00,
2013-01-02 22:26:00,24.8,18.6,30.18,SSW,193,5.0,5.0,77,0.00,,,0.00,Wunderground v.1.15,2013-01-03 04:26:00,
2013-01-02 22:30:00,24.9,18.7,30.18,SSW,201,5.0,5.0,77,0.00,,,0.00,Wunderground v.1.15,2013-01-03 04:30:00,
2013-01-02 22:32:00,24.9,19.0,30.18,SSW,212,5.0,8.0,78,0.00,,,0.00,Wunderground v.1.15,2013-01-03 04:32:00,
2013-01-02 22:33:00,25.0,19.1,30.18,SSW,198,5.0,8.0,78,0.00,,,0.00,Wunderground v.1.15,2013-01-03 04:33:00,
2013-01-02 22:38:00,25.1,19.2,30.18,SW,222,4.0,8.0,78,0.00,,,0.00,Wunderground v.1.15,2013-01-03 04:38:00,
2013-01-02 22:39:00,25.1,19.2,30.18,SSW,203,4.0,8.0,78,0.00,,,0.00,Wunderground v.1.15,2013-01-03 04:39:00,
2013-01-02 22:40:00,25.1,19.2,30.18,SW,235,5.0,7.0,78,0.00,,,0.00,Wunderground v.1.15,2013-01-03 04:40:00,
2013-01-02 22:45:00,25.2,19.3,30.18,SSW,205,5.0,7.0,78,0.00,,,0.00,Wunderground v.1.15,2013-01-03 04:45:00,
2013-01-02 22:46:00,25.3,19.4,30.18,SSW,212,5.0,7.0,78,0.00,,,0.00,Wunderground v.1.15,2013-01-03 04:46:00,
2013-01-02 22:50:00,25.3,19.1,30.18,South,180,6.0,6.0,77,0.00,,,0.00,Wunderground v.1.15,2013-01-03 04:50:00,
2013-01-02 22:51:00,25.3,19.1,30.18,SSW,201,5.0,6.0,77,0.00,,,0.00,Wunderground v.1.15,2013-01-03 04:51:00,
2013-01-02 22:53:00,25.3,19.1,30.18,SSW,208,5.0,8.0,77,0.00,,,0.00,Wunderground v.1.15,2013-01-03 04:53:00,
2013-01-02 22:55:00,25.3,19.1,30.18,SSW,206,6.0,8.0,77,0.00,,,0.00,Wunderground v.1.15,2013-01-03 04:55:00,
2013-01-02 22:57:00,25.3,19.1,30.18,South,176,6.0,8.0,77,0.00,,,0.00,Wunderground v.1.15,2013-01-03 04:57:00,
2013-01-02 22:58:00,25.3,19.1,30.18,SSW,195,6.0,8.0,77,0.00,,,0.00,Wunderground v.1.15,2013-01-03 04:58:00,
2013-01-02 23:00:00,25.2,19.0,30.18,SSW,195,5.0,5.0,77,0.00,,,0.00,Wunderground v.1.15,2013-01-03 05:00:00,
2013-01-02 23:01:00,25.2,19.0,30.18,SSW,197,5.0,5.0,77,0.00,,,0.00,Wunderground v.1.15,2013-01-03 05:01:00,
2013-01-02 23:03:00,25.1,18.9,30.18,SSW,208,5.0,6.0,77,0.00,,,0.00,Wunderground v.1.15,2013-01-03 05:03:00,
2013-01-02 23:05:00,25.0,19.1,30.18,South,174,5.0,6.0,78,0.00,,,0.00,Wunderground v.1.15,2013-01-03 05:05:00,
2013-01-02 23:09:00,24.9,19.0,30.19,SSW,201,4.0,6.0,78,0.00,,,0.00,Wunderground v.1.15,2013-01-03 05:09:00,
2013-01-02 23:11:00,24.8,18.9,30.18,SSW,207,4.0,5.0,78,0.00,,,0.00,Wunderground v.1.15,2013-01-03 05:11:00,
2013-01-02 23:14:00,24.8,18.9,30.19,SSW,195,4.0,5.0,78,0.00,,,0.00,Wunderground v.1.15,2013-01-03 05:14:00,
2013-01-02 23:16:00,24.7,18.8,30.18,SSW,210,3.0,5.0,78,0.00,,,0.00,Wunderground v.1.15,2013-01-03 05:16:00,
2013-01-02 23:20:00,24.6,18.7,30.18,SSW,201,3.0,3.0,78,0.00,,,0.00,Wunderground v.1.15,2013-01-03 05:20:00,
2013-01-02 23:21:00,24.6,18.7,30.19,SSW,204,3.0,3.0,78,0.00,,,0.00,Wunderground v.1.15,2013-01-03 05:21:00,
2013-01-02 23:24:00,24.5,18.6,30.18,SSW,208,3.0,4.0,78,0.00,,,0.00,Wunderground v.1.15,2013-01-03 05:24:00,
2013-01-02 23:29:00,24.5,18.9,30.19,SW,215,3.0,5.0,79,0.00,,,0.00,Wunderground v.1.15,2013-01-03 05:29:00,
2013-01-02 23:30:00,24.5,18.9,30.18,SSW,210,4.0,4.0,79,0.00,,,0.00,Wunderground v.1.15,2013-01-03 05:30:00,
2013-01-02 23:31:00,24.5,18.9,30.18,SSW,201,4.0,4.0,79,0.00,,,0.00,Wunderground v.1.15,2013-01-03 05:31:00,
2013-01-02 23:33:00,24.5,18.9,30.18,SSW,205,3.0,4.0,79,0.00,,,0.00,Wunderground v.1.15,2013-01-03 05:33:00,
2013-01-02 23:34:00,24.4,18.8,30.18,South,191,3.0,4.0,79,0.00,,,0.00,Wunderground v.1.15,2013-01-03 05:34:00,
2013-01-02 23:36:00,24.4,18.8,30.18,SSW,206,3.0,4.0,79,0.00,,,0.00,Wunderground v.1.15,2013-01-03 05:36:00,
2013-01-02 23:38:00,24.4,18.8,30.18,SSW,212,3.0,4.0,79,0.00,,,0.00,Wunderground v.1.15,2013-01-03 05:38:00,
2013-01-02 23:39:00,24.4,18.8,30.18,SSW,201,3.0,4.0,79,0.00,,,0.00,Wunderground v.1.15,2013-01-03 05:39:00,
2013-01-02 23:43:00,24.4,18.8,30.18,SW,218,3.0,4.0,79,0.00,,,0.00,Wunderground v.1.15,2013-01-03 05:43:00,
2013-01-02 23:44:00,24.4,18.8,30.18,SW,215,3.0,4.0,79,0.00,,,0.00,Wunderground v.1.15,2013-01-03 05:44:00,
2013-01-02 23:46:00,24.4,18.8,30.18,SSW,208,3.0,4.0,79,0.00,,,0.00,Wunderground v.1.15,2013-01-03 05:46:00,
2013-01-02 23:49:00,24.3,19.0,30.18,SW,229,3.0,4.0,80,0.00,,,0.00,Wunderground v.1.15,2013-01-03 05:49:00,
2013-01-02 23:51:00,24.3,19.0,30.18,SW,225,3.0,4.0,80,0.00,,,0.00,Wunderground v.1.15,2013-01-03 05:51:00,
2013-01-02 23:52:00,24.2,18.9,30.18,SW,226,3.0,4.0,80,0.00,,,0.00,Wunderground v.1.15,2013-01-03 05:52:00,
2013-01-02 23:57:00,24.0,19.0,30.18,SW,222,3.0,4.0,81,0.00,,,0.00,Wunderground v.1.15,2013-01-03 05:57:00,
2013-01-02 23:58:00,24.0,19.0,30.18,SW,229,3.0,4.0,81,0.00,,,0.00,Wunderground v.1.15,2013-01-03 05:58:00,
2013-01-02 23:59:00,23.9,18.9,30.18,SW,218,3.0,4.0,81,0.00,,,0.00,Wunderground v.1.15,2013-01-03 05:59:00,